<?xml version="1.0" encoding="UTF-8" standalone="no" ?>
<gpx xmlns="http://www.topografix.com/GPX/1/1" xmlns:xsi="http://www.w3.org/2001/XMLSchema-instance" xsi:schemaLocation="http://www.topografix.com/GPX/1/1 http://www.topografix.com/GPX/1/1/gpx.xsd" version="1.1" creator="VisuGPX - https://www.visugpx.com">
  <metadata>
    <name>Corcelles-les-Monts : Mont Afrique et Source du NAIZOU</name>
    <desc><![CDATA[Randonnée sans difficulté particulière, très connue des randonneurs.]]></desc>
  </metadata>
  <trk>
    <name><![CDATA[2016-01-19-01]]></name>
    <trkseg>
      <trkpt lat="47.29448" lon="4.93864">
        <ele>470.9</ele>
        <time>2016-01-19T13:03:15Z</time>
      </trkpt>
      <trkpt lat="47.2943" lon="4.93826">
        <ele>473.8</ele>
        <time>2016-01-19T13:03:16Z</time>
      </trkpt>
      <trkpt lat="47.29427" lon="4.93841">
        <ele>472.6</ele>
        <time>2016-01-19T13:03:18Z</time>
      </trkpt>
      <trkpt lat="47.2944" lon="4.9386">
        <ele>471.3</ele>
        <time>2016-01-19T13:03:20Z</time>
      </trkpt>
      <trkpt lat="47.29421" lon="4.93823">
        <ele>474.1</ele>
        <time>2016-01-19T13:03:21Z</time>
      </trkpt>
      <trkpt lat="47.29407" lon="4.93834">
        <ele>473.5</ele>
        <time>2016-01-19T13:03:22Z</time>
      </trkpt>
      <trkpt lat="47.29414" lon="4.93825">
        <ele>474</ele>
        <time>2016-01-19T13:03:25Z</time>
      </trkpt>
      <trkpt lat="47.29423" lon="4.93825">
        <ele>473.9</ele>
        <time>2016-01-19T13:03:34Z</time>
      </trkpt>
      <trkpt lat="47.29428" lon="4.93814">
        <ele>474.9</ele>
        <time>2016-01-19T13:03:48Z</time>
      </trkpt>
      <trkpt lat="47.29433" lon="4.93801">
        <ele>476.2</ele>
        <time>2016-01-19T13:03:57Z</time>
      </trkpt>
      <trkpt lat="47.2944" lon="4.93792">
        <ele>477.1</ele>
        <time>2016-01-19T13:04:06Z</time>
      </trkpt>
      <trkpt lat="47.29448" lon="4.93783">
        <ele>478.1</ele>
        <time>2016-01-19T13:04:15Z</time>
      </trkpt>
      <trkpt lat="47.29456" lon="4.93776">
        <ele>478.8</ele>
        <time>2016-01-19T13:04:24Z</time>
      </trkpt>
      <trkpt lat="47.29456" lon="4.93763">
        <ele>480.3</ele>
        <time>2016-01-19T13:04:40Z</time>
      </trkpt>
      <trkpt lat="47.29463" lon="4.93753">
        <ele>481.3</ele>
        <time>2016-01-19T13:04:49Z</time>
      </trkpt>
      <trkpt lat="47.29469" lon="4.93742">
        <ele>482.7</ele>
        <time>2016-01-19T13:05:03Z</time>
      </trkpt>
      <trkpt lat="47.29465" lon="4.93729">
        <ele>484.4</ele>
        <time>2016-01-19T13:05:13Z</time>
      </trkpt>
      <trkpt lat="47.29467" lon="4.93716">
        <ele>486.5</ele>
        <time>2016-01-19T13:05:25Z</time>
      </trkpt>
      <trkpt lat="47.29476" lon="4.93714">
        <ele>487.1</ele>
        <time>2016-01-19T13:05:29Z</time>
      </trkpt>
      <trkpt lat="47.29486" lon="4.93713">
        <ele>487.7</ele>
        <time>2016-01-19T13:05:34Z</time>
      </trkpt>
      <trkpt lat="47.29495" lon="4.93713">
        <ele>488.1</ele>
        <time>2016-01-19T13:05:39Z</time>
      </trkpt>
      <trkpt lat="47.29505" lon="4.93712">
        <ele>488.7</ele>
        <time>2016-01-19T13:05:48Z</time>
      </trkpt>
      <trkpt lat="47.29515" lon="4.93711">
        <ele>488.9</ele>
        <time>2016-01-19T13:05:56Z</time>
      </trkpt>
      <trkpt lat="47.29524" lon="4.93712">
        <ele>488.9</ele>
        <time>2016-01-19T13:06:03Z</time>
      </trkpt>
      <trkpt lat="47.29535" lon="4.9371">
        <ele>489.6</ele>
        <time>2016-01-19T13:06:13Z</time>
      </trkpt>
      <trkpt lat="47.29544" lon="4.93709">
        <ele>490.1</ele>
        <time>2016-01-19T13:06:18Z</time>
      </trkpt>
      <trkpt lat="47.29553" lon="4.9371">
        <ele>490</ele>
        <time>2016-01-19T13:06:25Z</time>
      </trkpt>
      <trkpt lat="47.29562" lon="4.93708">
        <ele>490.7</ele>
        <time>2016-01-19T13:06:34Z</time>
      </trkpt>
      <trkpt lat="47.29571" lon="4.93707">
        <ele>491</ele>
        <time>2016-01-19T13:06:42Z</time>
      </trkpt>
      <trkpt lat="47.29581" lon="4.93706">
        <ele>491.4</ele>
        <time>2016-01-19T13:06:49Z</time>
      </trkpt>
      <trkpt lat="47.2959" lon="4.9371">
        <ele>490.4</ele>
        <time>2016-01-19T13:06:58Z</time>
      </trkpt>
      <trkpt lat="47.296" lon="4.93711">
        <ele>489.7</ele>
        <time>2016-01-19T13:07:06Z</time>
      </trkpt>
      <trkpt lat="47.29609" lon="4.93714">
        <ele>488.8</ele>
        <time>2016-01-19T13:07:13Z</time>
      </trkpt>
      <trkpt lat="47.29617" lon="4.9372">
        <ele>487.3</ele>
        <time>2016-01-19T13:07:22Z</time>
      </trkpt>
      <trkpt lat="47.29624" lon="4.93727">
        <ele>485.7</ele>
        <time>2016-01-19T13:07:31Z</time>
      </trkpt>
      <trkpt lat="47.29633" lon="4.93721">
        <ele>486.6</ele>
        <time>2016-01-19T13:07:44Z</time>
      </trkpt>
      <trkpt lat="47.29641" lon="4.93712">
        <ele>487.6</ele>
        <time>2016-01-19T13:07:54Z</time>
      </trkpt>
      <trkpt lat="47.2965" lon="4.93707">
        <ele>488</ele>
        <time>2016-01-19T13:08:03Z</time>
      </trkpt>
      <trkpt lat="47.29659" lon="4.93704">
        <ele>488.2</ele>
        <time>2016-01-19T13:08:10Z</time>
      </trkpt>
      <trkpt lat="47.29669" lon="4.93701">
        <ele>488.1</ele>
        <time>2016-01-19T13:08:20Z</time>
      </trkpt>
      <trkpt lat="47.29678" lon="4.937">
        <ele>487.2</ele>
        <time>2016-01-19T13:08:30Z</time>
      </trkpt>
      <trkpt lat="47.29688" lon="4.93699">
        <ele>486</ele>
        <time>2016-01-19T13:08:39Z</time>
      </trkpt>
      <trkpt lat="47.29698" lon="4.93697">
        <ele>485.3</ele>
        <time>2016-01-19T13:08:50Z</time>
      </trkpt>
      <trkpt lat="47.29707" lon="4.93693">
        <ele>484.8</ele>
        <time>2016-01-19T13:09:14Z</time>
      </trkpt>
      <trkpt lat="47.29716" lon="4.93689">
        <ele>484.1</ele>
        <time>2016-01-19T13:09:23Z</time>
      </trkpt>
      <trkpt lat="47.29725" lon="4.93685">
        <ele>483.6</ele>
        <time>2016-01-19T13:09:31Z</time>
      </trkpt>
      <trkpt lat="47.29734" lon="4.93679">
        <ele>483.1</ele>
        <time>2016-01-19T13:09:40Z</time>
      </trkpt>
      <trkpt lat="47.29743" lon="4.93675">
        <ele>482.3</ele>
        <time>2016-01-19T13:09:49Z</time>
      </trkpt>
      <trkpt lat="47.29752" lon="4.93669">
        <ele>481.7</ele>
        <time>2016-01-19T13:09:57Z</time>
      </trkpt>
      <trkpt lat="47.29761" lon="4.93664">
        <ele>481.4</ele>
        <time>2016-01-19T13:10:04Z</time>
      </trkpt>
      <trkpt lat="47.29768" lon="4.93655">
        <ele>482.2</ele>
        <time>2016-01-19T13:10:12Z</time>
      </trkpt>
      <trkpt lat="47.29775" lon="4.93645">
        <ele>482.7</ele>
        <time>2016-01-19T13:10:21Z</time>
      </trkpt>
      <trkpt lat="47.29781" lon="4.93635">
        <ele>483.4</ele>
        <time>2016-01-19T13:10:30Z</time>
      </trkpt>
      <trkpt lat="47.29789" lon="4.93626">
        <ele>483.6</ele>
        <time>2016-01-19T13:10:39Z</time>
      </trkpt>
      <trkpt lat="47.29794" lon="4.93614">
        <ele>484.4</ele>
        <time>2016-01-19T13:10:48Z</time>
      </trkpt>
      <trkpt lat="47.29795" lon="4.936">
        <ele>485.8</ele>
        <time>2016-01-19T13:11:01Z</time>
      </trkpt>
      <trkpt lat="47.298" lon="4.93589">
        <ele>486.3</ele>
        <time>2016-01-19T13:11:13Z</time>
      </trkpt>
      <trkpt lat="47.29808" lon="4.93582">
        <ele>485.8</ele>
        <time>2016-01-19T13:11:24Z</time>
      </trkpt>
      <trkpt lat="47.29811" lon="4.93569">
        <ele>487.7</ele>
        <time>2016-01-19T13:11:42Z</time>
      </trkpt>
      <trkpt lat="47.29817" lon="4.93558">
        <ele>488</ele>
        <time>2016-01-19T13:11:57Z</time>
      </trkpt>
      <trkpt lat="47.29821" lon="4.93545">
        <ele>489</ele>
        <time>2016-01-19T13:12:16Z</time>
      </trkpt>
      <trkpt lat="47.29829" lon="4.93536">
        <ele>488.5</ele>
        <time>2016-01-19T13:12:25Z</time>
      </trkpt>
      <trkpt lat="47.29838" lon="4.93531">
        <ele>487.4</ele>
        <time>2016-01-19T13:12:32Z</time>
      </trkpt>
      <trkpt lat="47.29848" lon="4.93528">
        <ele>486.5</ele>
        <time>2016-01-19T13:12:35Z</time>
      </trkpt>
      <trkpt lat="47.29859" lon="4.93524">
        <ele>485.4</ele>
        <time>2016-01-19T13:12:38Z</time>
      </trkpt>
      <trkpt lat="47.29869" lon="4.93522">
        <ele>484.4</ele>
        <time>2016-01-19T13:12:41Z</time>
      </trkpt>
      <trkpt lat="47.29877" lon="4.93515">
        <ele>483.8</ele>
        <time>2016-01-19T13:12:56Z</time>
      </trkpt>
      <trkpt lat="47.29884" lon="4.93506">
        <ele>483.5</ele>
        <time>2016-01-19T13:13:03Z</time>
      </trkpt>
      <trkpt lat="47.29885" lon="4.93493">
        <ele>484.7</ele>
        <time>2016-01-19T13:13:12Z</time>
      </trkpt>
      <trkpt lat="47.29889" lon="4.9348">
        <ele>485.3</ele>
        <time>2016-01-19T13:13:25Z</time>
      </trkpt>
      <trkpt lat="47.29893" lon="4.93467">
        <ele>485.9</ele>
        <time>2016-01-19T13:13:36Z</time>
      </trkpt>
      <trkpt lat="47.29899" lon="4.93457">
        <ele>485.6</ele>
        <time>2016-01-19T13:13:45Z</time>
      </trkpt>
      <trkpt lat="47.299" lon="4.93442">
        <ele>486.6</ele>
        <time>2016-01-19T13:13:56Z</time>
      </trkpt>
      <trkpt lat="47.29903" lon="4.93429">
        <ele>486.8</ele>
        <time>2016-01-19T13:14:07Z</time>
      </trkpt>
      <trkpt lat="47.29909" lon="4.93418">
        <ele>486</ele>
        <time>2016-01-19T13:14:16Z</time>
      </trkpt>
      <trkpt lat="47.29916" lon="4.93406">
        <ele>485.1</ele>
        <time>2016-01-19T13:14:25Z</time>
      </trkpt>
      <trkpt lat="47.29917" lon="4.93393">
        <ele>486</ele>
        <time>2016-01-19T13:14:33Z</time>
      </trkpt>
      <trkpt lat="47.29916" lon="4.93379">
        <ele>487.3</ele>
        <time>2016-01-19T13:14:41Z</time>
      </trkpt>
      <trkpt lat="47.29918" lon="4.93366">
        <ele>488.1</ele>
        <time>2016-01-19T13:14:49Z</time>
      </trkpt>
      <trkpt lat="47.29922" lon="4.93352">
        <ele>488.7</ele>
        <time>2016-01-19T13:14:57Z</time>
      </trkpt>
      <trkpt lat="47.29923" lon="4.93339">
        <ele>489.5</ele>
        <time>2016-01-19T13:15:07Z</time>
      </trkpt>
      <trkpt lat="47.29931" lon="4.9333">
        <ele>488.6</ele>
        <time>2016-01-19T13:15:15Z</time>
      </trkpt>
      <trkpt lat="47.29939" lon="4.93322">
        <ele>487.4</ele>
        <time>2016-01-19T13:15:25Z</time>
      </trkpt>
      <trkpt lat="47.29944" lon="4.93309">
        <ele>486.7</ele>
        <time>2016-01-19T13:15:36Z</time>
      </trkpt>
      <trkpt lat="47.29952" lon="4.93299">
        <ele>485.2</ele>
        <time>2016-01-19T13:15:42Z</time>
      </trkpt>
      <trkpt lat="47.2996" lon="4.93292">
        <ele>483.8</ele>
        <time>2016-01-19T13:15:51Z</time>
      </trkpt>
      <trkpt lat="47.29965" lon="4.93279">
        <ele>482.8</ele>
        <time>2016-01-19T13:15:57Z</time>
      </trkpt>
      <trkpt lat="47.29969" lon="4.93266">
        <ele>481.8</ele>
        <time>2016-01-19T13:16:08Z</time>
      </trkpt>
      <trkpt lat="47.29973" lon="4.93254">
        <ele>480.8</ele>
        <time>2016-01-19T13:16:16Z</time>
      </trkpt>
      <trkpt lat="47.29976" lon="4.93241">
        <ele>480.5</ele>
        <time>2016-01-19T13:16:25Z</time>
      </trkpt>
      <trkpt lat="47.29979" lon="4.93228">
        <ele>480.2</ele>
        <time>2016-01-19T13:16:33Z</time>
      </trkpt>
      <trkpt lat="47.29983" lon="4.93215">
        <ele>479.8</ele>
        <time>2016-01-19T13:16:42Z</time>
      </trkpt>
      <trkpt lat="47.29987" lon="4.932">
        <ele>479.4</ele>
        <time>2016-01-19T13:16:49Z</time>
      </trkpt>
      <trkpt lat="47.29988" lon="4.93186">
        <ele>479.4</ele>
        <time>2016-01-19T13:16:56Z</time>
      </trkpt>
      <trkpt lat="47.2999" lon="4.93173">
        <ele>479.4</ele>
        <time>2016-01-19T13:17:02Z</time>
      </trkpt>
      <trkpt lat="47.29993" lon="4.9316">
        <ele>479.6</ele>
        <time>2016-01-19T13:17:07Z</time>
      </trkpt>
      <trkpt lat="47.29995" lon="4.93144">
        <ele>481.2</ele>
        <time>2016-01-19T13:17:12Z</time>
      </trkpt>
      <trkpt lat="47.29995" lon="4.9313">
        <ele>482.7</ele>
        <time>2016-01-19T13:17:17Z</time>
      </trkpt>
      <trkpt lat="47.29997" lon="4.93116">
        <ele>484</ele>
        <time>2016-01-19T13:17:23Z</time>
      </trkpt>
      <trkpt lat="47.29997" lon="4.93102">
        <ele>485.8</ele>
        <time>2016-01-19T13:17:30Z</time>
      </trkpt>
      <trkpt lat="47.30002" lon="4.9309">
        <ele>485.9</ele>
        <time>2016-01-19T13:17:37Z</time>
      </trkpt>
      <trkpt lat="47.3001" lon="4.93083">
        <ele>485.8</ele>
        <time>2016-01-19T13:17:44Z</time>
      </trkpt>
      <trkpt lat="47.30018" lon="4.93075">
        <ele>485.3</ele>
        <time>2016-01-19T13:17:51Z</time>
      </trkpt>
      <trkpt lat="47.30022" lon="4.93062">
        <ele>485.8</ele>
        <time>2016-01-19T13:17:58Z</time>
      </trkpt>
      <trkpt lat="47.30026" lon="4.93049">
        <ele>486.2</ele>
        <time>2016-01-19T13:18:05Z</time>
      </trkpt>
      <trkpt lat="47.30031" lon="4.93036">
        <ele>486.3</ele>
        <time>2016-01-19T13:18:12Z</time>
      </trkpt>
      <trkpt lat="47.30036" lon="4.93025">
        <ele>485.7</ele>
        <time>2016-01-19T13:18:18Z</time>
      </trkpt>
      <trkpt lat="47.30042" lon="4.93014">
        <ele>485.1</ele>
        <time>2016-01-19T13:18:25Z</time>
      </trkpt>
      <trkpt lat="47.30046" lon="4.93002">
        <ele>484.9</ele>
        <time>2016-01-19T13:18:30Z</time>
      </trkpt>
      <trkpt lat="47.30051" lon="4.92991">
        <ele>483.6</ele>
        <time>2016-01-19T13:18:38Z</time>
      </trkpt>
      <trkpt lat="47.30055" lon="4.92977">
        <ele>482.4</ele>
        <time>2016-01-19T13:18:46Z</time>
      </trkpt>
      <trkpt lat="47.30059" lon="4.92964">
        <ele>481.4</ele>
        <time>2016-01-19T13:18:56Z</time>
      </trkpt>
      <trkpt lat="47.30061" lon="4.92951">
        <ele>480.8</ele>
        <time>2016-01-19T13:19:04Z</time>
      </trkpt>
      <trkpt lat="47.30064" lon="4.92937">
        <ele>480.2</ele>
        <time>2016-01-19T13:19:14Z</time>
      </trkpt>
      <trkpt lat="47.30063" lon="4.92923">
        <ele>480.4</ele>
        <time>2016-01-19T13:19:22Z</time>
      </trkpt>
      <trkpt lat="47.30062" lon="4.92909">
        <ele>480.4</ele>
        <time>2016-01-19T13:19:31Z</time>
      </trkpt>
      <trkpt lat="47.30062" lon="4.92895">
        <ele>480.2</ele>
        <time>2016-01-19T13:19:40Z</time>
      </trkpt>
      <trkpt lat="47.30061" lon="4.92881">
        <ele>480</ele>
        <time>2016-01-19T13:19:51Z</time>
      </trkpt>
      <trkpt lat="47.30059" lon="4.92866">
        <ele>480.1</ele>
        <time>2016-01-19T13:20:00Z</time>
      </trkpt>
      <trkpt lat="47.30058" lon="4.92852">
        <ele>480</ele>
        <time>2016-01-19T13:20:10Z</time>
      </trkpt>
      <trkpt lat="47.30056" lon="4.92838">
        <ele>480.1</ele>
        <time>2016-01-19T13:20:21Z</time>
      </trkpt>
      <trkpt lat="47.30054" lon="4.92824">
        <ele>479.8</ele>
        <time>2016-01-19T13:20:32Z</time>
      </trkpt>
      <trkpt lat="47.30052" lon="4.92809">
        <ele>479.4</ele>
        <time>2016-01-19T13:20:42Z</time>
      </trkpt>
      <trkpt lat="47.30048" lon="4.92796">
        <ele>479.3</ele>
        <time>2016-01-19T13:20:53Z</time>
      </trkpt>
      <trkpt lat="47.30045" lon="4.92783">
        <ele>479.1</ele>
        <time>2016-01-19T13:21:03Z</time>
      </trkpt>
      <trkpt lat="47.30042" lon="4.92769">
        <ele>478.9</ele>
        <time>2016-01-19T13:21:14Z</time>
      </trkpt>
      <trkpt lat="47.30037" lon="4.92759">
        <ele>479.3</ele>
        <time>2016-01-19T13:21:24Z</time>
      </trkpt>
      <trkpt lat="47.30033" lon="4.92745">
        <ele>479.1</ele>
        <time>2016-01-19T13:21:32Z</time>
      </trkpt>
      <trkpt lat="47.30031" lon="4.92731">
        <ele>478.8</ele>
        <time>2016-01-19T13:21:39Z</time>
      </trkpt>
      <trkpt lat="47.30028" lon="4.92717">
        <ele>478.7</ele>
        <time>2016-01-19T13:21:47Z</time>
      </trkpt>
      <trkpt lat="47.30025" lon="4.92703">
        <ele>478.5</ele>
        <time>2016-01-19T13:21:53Z</time>
      </trkpt>
      <trkpt lat="47.30023" lon="4.9269">
        <ele>478.2</ele>
        <time>2016-01-19T13:21:59Z</time>
      </trkpt>
      <trkpt lat="47.30019" lon="4.92677">
        <ele>478.3</ele>
        <time>2016-01-19T13:22:09Z</time>
      </trkpt>
      <trkpt lat="47.30016" lon="4.92663">
        <ele>478</ele>
        <time>2016-01-19T13:22:17Z</time>
      </trkpt>
      <trkpt lat="47.30011" lon="4.92652">
        <ele>478.4</ele>
        <time>2016-01-19T13:22:26Z</time>
      </trkpt>
      <trkpt lat="47.30005" lon="4.92642">
        <ele>479</ele>
        <time>2016-01-19T13:22:35Z</time>
      </trkpt>
      <trkpt lat="47.29998" lon="4.92631">
        <ele>479.8</ele>
        <time>2016-01-19T13:22:45Z</time>
      </trkpt>
      <trkpt lat="47.29994" lon="4.92619">
        <ele>480.4</ele>
        <time>2016-01-19T13:22:54Z</time>
      </trkpt>
      <trkpt lat="47.29989" lon="4.92607">
        <ele>481.1</ele>
        <time>2016-01-19T13:23:04Z</time>
      </trkpt>
      <trkpt lat="47.29983" lon="4.92595">
        <ele>482</ele>
        <time>2016-01-19T13:23:16Z</time>
      </trkpt>
      <trkpt lat="47.2998" lon="4.92583">
        <ele>481.9</ele>
        <time>2016-01-19T13:23:25Z</time>
      </trkpt>
      <trkpt lat="47.29973" lon="4.92574">
        <ele>482.2</ele>
        <time>2016-01-19T13:23:39Z</time>
      </trkpt>
      <trkpt lat="47.29969" lon="4.92562">
        <ele>481.2</ele>
        <time>2016-01-19T13:24:36Z</time>
      </trkpt>
      <trkpt lat="47.29971" lon="4.92548">
        <ele>478.4</ele>
        <time>2016-01-19T13:25:19Z</time>
      </trkpt>
      <trkpt lat="47.29972" lon="4.92535">
        <ele>475.6</ele>
        <time>2016-01-19T13:25:35Z</time>
      </trkpt>
      <trkpt lat="47.29964" lon="4.92528">
        <ele>477.1</ele>
        <time>2016-01-19T13:27:30Z</time>
      </trkpt>
      <trkpt lat="47.29955" lon="4.92521">
        <ele>478.5</ele>
        <time>2016-01-19T13:27:39Z</time>
      </trkpt>
      <trkpt lat="47.29948" lon="4.92512">
        <ele>479.1</ele>
        <time>2016-01-19T13:27:53Z</time>
      </trkpt>
      <trkpt lat="47.2994" lon="4.92504">
        <ele>480.4</ele>
        <time>2016-01-19T13:28:02Z</time>
      </trkpt>
      <trkpt lat="47.29932" lon="4.92495">
        <ele>481.2</ele>
        <time>2016-01-19T13:28:11Z</time>
      </trkpt>
      <trkpt lat="47.29925" lon="4.92487">
        <ele>482.3</ele>
        <time>2016-01-19T13:28:25Z</time>
      </trkpt>
      <trkpt lat="47.29919" lon="4.92475">
        <ele>482.3</ele>
        <time>2016-01-19T13:28:33Z</time>
      </trkpt>
      <trkpt lat="47.29912" lon="4.92465">
        <ele>482.5</ele>
        <time>2016-01-19T13:28:44Z</time>
      </trkpt>
      <trkpt lat="47.29906" lon="4.92455">
        <ele>482.1</ele>
        <time>2016-01-19T13:28:54Z</time>
      </trkpt>
      <trkpt lat="47.29899" lon="4.92446">
        <ele>482.3</ele>
        <time>2016-01-19T13:29:04Z</time>
      </trkpt>
      <trkpt lat="47.29893" lon="4.92435">
        <ele>481.8</ele>
        <time>2016-01-19T13:29:16Z</time>
      </trkpt>
      <trkpt lat="47.29886" lon="4.92426">
        <ele>482.3</ele>
        <time>2016-01-19T13:29:25Z</time>
      </trkpt>
      <trkpt lat="47.29879" lon="4.92416">
        <ele>482.4</ele>
        <time>2016-01-19T13:29:34Z</time>
      </trkpt>
      <trkpt lat="47.29872" lon="4.92406">
        <ele>482.7</ele>
        <time>2016-01-19T13:29:44Z</time>
      </trkpt>
      <trkpt lat="47.29866" lon="4.92396">
        <ele>482.6</ele>
        <time>2016-01-19T13:29:52Z</time>
      </trkpt>
      <trkpt lat="47.29859" lon="4.92387">
        <ele>483.5</ele>
        <time>2016-01-19T13:30:01Z</time>
      </trkpt>
      <trkpt lat="47.29854" lon="4.92376">
        <ele>483.4</ele>
        <time>2016-01-19T13:30:11Z</time>
      </trkpt>
      <trkpt lat="47.29847" lon="4.92366">
        <ele>484.1</ele>
        <time>2016-01-19T13:30:18Z</time>
      </trkpt>
      <trkpt lat="47.2984" lon="4.92356">
        <ele>484.7</ele>
        <time>2016-01-19T13:30:31Z</time>
      </trkpt>
      <trkpt lat="47.29832" lon="4.92349">
        <ele>486</ele>
        <time>2016-01-19T13:30:39Z</time>
      </trkpt>
      <trkpt lat="47.29825" lon="4.9234">
        <ele>486.1</ele>
        <time>2016-01-19T13:30:50Z</time>
      </trkpt>
      <trkpt lat="47.29815" lon="4.92338">
        <ele>487.3</ele>
        <time>2016-01-19T13:31:01Z</time>
      </trkpt>
      <trkpt lat="47.29807" lon="4.9233">
        <ele>487.7</ele>
        <time>2016-01-19T13:31:13Z</time>
      </trkpt>
      <trkpt lat="47.29798" lon="4.92328">
        <ele>488.9</ele>
        <time>2016-01-19T13:31:24Z</time>
      </trkpt>
      <trkpt lat="47.29789" lon="4.92324">
        <ele>489.8</ele>
        <time>2016-01-19T13:31:34Z</time>
      </trkpt>
      <trkpt lat="47.29781" lon="4.92319">
        <ele>490.4</ele>
        <time>2016-01-19T13:31:45Z</time>
      </trkpt>
      <trkpt lat="47.29772" lon="4.92315">
        <ele>491.4</ele>
        <time>2016-01-19T13:31:54Z</time>
      </trkpt>
      <trkpt lat="47.29763" lon="4.92311">
        <ele>492.5</ele>
        <time>2016-01-19T13:32:02Z</time>
      </trkpt>
      <trkpt lat="47.29754" lon="4.92306">
        <ele>493.4</ele>
        <time>2016-01-19T13:32:12Z</time>
      </trkpt>
      <trkpt lat="47.29745" lon="4.92304">
        <ele>494.2</ele>
        <time>2016-01-19T13:32:23Z</time>
      </trkpt>
      <trkpt lat="47.29735" lon="4.92301">
        <ele>494.6</ele>
        <time>2016-01-19T13:32:41Z</time>
      </trkpt>
      <trkpt lat="47.29725" lon="4.92304">
        <ele>495.6</ele>
        <time>2016-01-19T13:32:55Z</time>
      </trkpt>
      <trkpt lat="47.29716" lon="4.92306">
        <ele>496.6</ele>
        <time>2016-01-19T13:33:07Z</time>
      </trkpt>
      <trkpt lat="47.29707" lon="4.92309">
        <ele>497.7</ele>
        <time>2016-01-19T13:33:16Z</time>
      </trkpt>
      <trkpt lat="47.29698" lon="4.92312">
        <ele>498.8</ele>
        <time>2016-01-19T13:33:21Z</time>
      </trkpt>
      <trkpt lat="47.29689" lon="4.92314">
        <ele>499.9</ele>
        <time>2016-01-19T13:33:30Z</time>
      </trkpt>
      <trkpt lat="47.29679" lon="4.9231">
        <ele>500.1</ele>
        <time>2016-01-19T13:33:38Z</time>
      </trkpt>
      <trkpt lat="47.29671" lon="4.92306">
        <ele>499.9</ele>
        <time>2016-01-19T13:33:48Z</time>
      </trkpt>
      <trkpt lat="47.29661" lon="4.92305">
        <ele>500.3</ele>
        <time>2016-01-19T13:33:57Z</time>
      </trkpt>
      <trkpt lat="47.29651" lon="4.92304">
        <ele>500.2</ele>
        <time>2016-01-19T13:34:04Z</time>
      </trkpt>
      <trkpt lat="47.29642" lon="4.92299">
        <ele>499.6</ele>
        <time>2016-01-19T13:34:09Z</time>
      </trkpt>
      <trkpt lat="47.29632" lon="4.92299">
        <ele>499.5</ele>
        <time>2016-01-19T13:34:16Z</time>
      </trkpt>
      <trkpt lat="47.29622" lon="4.92297">
        <ele>499.3</ele>
        <time>2016-01-19T13:34:24Z</time>
      </trkpt>
      <trkpt lat="47.29611" lon="4.92297">
        <ele>499.4</ele>
        <time>2016-01-19T13:34:31Z</time>
      </trkpt>
      <trkpt lat="47.29602" lon="4.92292">
        <ele>498.4</ele>
        <time>2016-01-19T13:34:44Z</time>
      </trkpt>
      <trkpt lat="47.29593" lon="4.92292">
        <ele>498.4</ele>
        <time>2016-01-19T13:34:55Z</time>
      </trkpt>
      <trkpt lat="47.29584" lon="4.92291">
        <ele>498.2</ele>
        <time>2016-01-19T13:35:07Z</time>
      </trkpt>
      <trkpt lat="47.29575" lon="4.92289">
        <ele>497.1</ele>
        <time>2016-01-19T13:35:16Z</time>
      </trkpt>
      <trkpt lat="47.29565" lon="4.92283">
        <ele>495.2</ele>
        <time>2016-01-19T13:35:27Z</time>
      </trkpt>
      <trkpt lat="47.29556" lon="4.92279">
        <ele>493.5</ele>
        <time>2016-01-19T13:35:35Z</time>
      </trkpt>
      <trkpt lat="47.29546" lon="4.92274">
        <ele>491.3</ele>
        <time>2016-01-19T13:35:41Z</time>
      </trkpt>
      <trkpt lat="47.29538" lon="4.92268">
        <ele>488.6</ele>
        <time>2016-01-19T13:35:45Z</time>
      </trkpt>
      <trkpt lat="47.2953" lon="4.92262">
        <ele>486.2</ele>
        <time>2016-01-19T13:35:49Z</time>
      </trkpt>
      <trkpt lat="47.2952" lon="4.92258">
        <ele>483.6</ele>
        <time>2016-01-19T13:35:55Z</time>
      </trkpt>
      <trkpt lat="47.29512" lon="4.92249">
        <ele>480.1</ele>
        <time>2016-01-19T13:36:02Z</time>
      </trkpt>
      <trkpt lat="47.29504" lon="4.92242">
        <ele>477.2</ele>
        <time>2016-01-19T13:36:09Z</time>
      </trkpt>
      <trkpt lat="47.29495" lon="4.92239">
        <ele>476.5</ele>
        <time>2016-01-19T13:36:17Z</time>
      </trkpt>
      <trkpt lat="47.29487" lon="4.9223">
        <ele>475.5</ele>
        <time>2016-01-19T13:36:25Z</time>
      </trkpt>
      <trkpt lat="47.29478" lon="4.92222">
        <ele>474.3</ele>
        <time>2016-01-19T13:36:34Z</time>
      </trkpt>
      <trkpt lat="47.29469" lon="4.92217">
        <ele>474.5</ele>
        <time>2016-01-19T13:36:43Z</time>
      </trkpt>
      <trkpt lat="47.29461" lon="4.9221">
        <ele>474.1</ele>
        <time>2016-01-19T13:36:51Z</time>
      </trkpt>
      <trkpt lat="47.29453" lon="4.92203">
        <ele>473.5</ele>
        <time>2016-01-19T13:37:00Z</time>
      </trkpt>
      <trkpt lat="47.29445" lon="4.92196">
        <ele>473.3</ele>
        <time>2016-01-19T13:37:13Z</time>
      </trkpt>
      <trkpt lat="47.29438" lon="4.92188">
        <ele>472.8</ele>
        <time>2016-01-19T13:37:24Z</time>
      </trkpt>
      <trkpt lat="47.2943" lon="4.9218">
        <ele>472.3</ele>
        <time>2016-01-19T13:37:34Z</time>
      </trkpt>
      <trkpt lat="47.29422" lon="4.92174">
        <ele>472.5</ele>
        <time>2016-01-19T13:37:47Z</time>
      </trkpt>
      <trkpt lat="47.29413" lon="4.9217">
        <ele>473.7</ele>
        <time>2016-01-19T13:37:59Z</time>
      </trkpt>
      <trkpt lat="47.29405" lon="4.92162">
        <ele>475</ele>
        <time>2016-01-19T13:38:07Z</time>
      </trkpt>
      <trkpt lat="47.29396" lon="4.92156">
        <ele>476.6</ele>
        <time>2016-01-19T13:38:15Z</time>
      </trkpt>
      <trkpt lat="47.29387" lon="4.92154">
        <ele>479.2</ele>
        <time>2016-01-19T13:38:28Z</time>
      </trkpt>
      <trkpt lat="47.29378" lon="4.92155">
        <ele>482.2</ele>
        <time>2016-01-19T13:38:37Z</time>
      </trkpt>
      <trkpt lat="47.29369" lon="4.92152">
        <ele>484.4</ele>
        <time>2016-01-19T13:38:48Z</time>
      </trkpt>
      <trkpt lat="47.2936" lon="4.92147">
        <ele>486.4</ele>
        <time>2016-01-19T13:38:55Z</time>
      </trkpt>
      <trkpt lat="47.29351" lon="4.92141">
        <ele>488.5</ele>
        <time>2016-01-19T13:39:02Z</time>
      </trkpt>
      <trkpt lat="47.29342" lon="4.92135">
        <ele>490</ele>
        <time>2016-01-19T13:39:10Z</time>
      </trkpt>
      <trkpt lat="47.29334" lon="4.92129">
        <ele>491.8</ele>
        <time>2016-01-19T13:39:18Z</time>
      </trkpt>
      <trkpt lat="47.29326" lon="4.92123">
        <ele>492.4</ele>
        <time>2016-01-19T13:39:26Z</time>
      </trkpt>
      <trkpt lat="47.29317" lon="4.92116">
        <ele>493</ele>
        <time>2016-01-19T13:39:35Z</time>
      </trkpt>
      <trkpt lat="47.29308" lon="4.92112">
        <ele>493.7</ele>
        <time>2016-01-19T13:39:43Z</time>
      </trkpt>
      <trkpt lat="47.29301" lon="4.92103">
        <ele>493.9</ele>
        <time>2016-01-19T13:39:50Z</time>
      </trkpt>
      <trkpt lat="47.29292" lon="4.92097">
        <ele>494.4</ele>
        <time>2016-01-19T13:39:59Z</time>
      </trkpt>
      <trkpt lat="47.29282" lon="4.92093">
        <ele>495.4</ele>
        <time>2016-01-19T13:40:08Z</time>
      </trkpt>
      <trkpt lat="47.29273" lon="4.92087">
        <ele>495.9</ele>
        <time>2016-01-19T13:40:17Z</time>
      </trkpt>
      <trkpt lat="47.29263" lon="4.92082">
        <ele>496.8</ele>
        <time>2016-01-19T13:40:25Z</time>
      </trkpt>
      <trkpt lat="47.29254" lon="4.92079">
        <ele>497.7</ele>
        <time>2016-01-19T13:40:33Z</time>
      </trkpt>
      <trkpt lat="47.29245" lon="4.92074">
        <ele>497.7</ele>
        <time>2016-01-19T13:40:43Z</time>
      </trkpt>
      <trkpt lat="47.29236" lon="4.92071">
        <ele>498.1</ele>
        <time>2016-01-19T13:40:54Z</time>
      </trkpt>
      <trkpt lat="47.29227" lon="4.92068">
        <ele>498.5</ele>
        <time>2016-01-19T13:41:02Z</time>
      </trkpt>
      <trkpt lat="47.29218" lon="4.92063">
        <ele>498.4</ele>
        <time>2016-01-19T13:41:20Z</time>
      </trkpt>
      <trkpt lat="47.29209" lon="4.92062">
        <ele>499</ele>
        <time>2016-01-19T13:41:27Z</time>
      </trkpt>
      <trkpt lat="47.29199" lon="4.92059">
        <ele>499.4</ele>
        <time>2016-01-19T13:41:34Z</time>
      </trkpt>
      <trkpt lat="47.2919" lon="4.92057">
        <ele>499.7</ele>
        <time>2016-01-19T13:41:42Z</time>
      </trkpt>
      <trkpt lat="47.29181" lon="4.92052">
        <ele>499.8</ele>
        <time>2016-01-19T13:41:48Z</time>
      </trkpt>
      <trkpt lat="47.29172" lon="4.92051">
        <ele>500.3</ele>
        <time>2016-01-19T13:41:55Z</time>
      </trkpt>
      <trkpt lat="47.29162" lon="4.9205">
        <ele>500.4</ele>
        <time>2016-01-19T13:42:08Z</time>
      </trkpt>
      <trkpt lat="47.29153" lon="4.92047">
        <ele>499.6</ele>
        <time>2016-01-19T13:42:28Z</time>
      </trkpt>
      <trkpt lat="47.29144" lon="4.92045">
        <ele>498.9</ele>
        <time>2016-01-19T13:42:43Z</time>
      </trkpt>
      <trkpt lat="47.29135" lon="4.92047">
        <ele>499.2</ele>
        <time>2016-01-19T13:42:50Z</time>
      </trkpt>
      <trkpt lat="47.29126" lon="4.92045">
        <ele>498.4</ele>
        <time>2016-01-19T13:42:57Z</time>
      </trkpt>
      <trkpt lat="47.29118" lon="4.92039">
        <ele>496.9</ele>
        <time>2016-01-19T13:43:04Z</time>
      </trkpt>
      <trkpt lat="47.29107" lon="4.92038">
        <ele>496.3</ele>
        <time>2016-01-19T13:43:13Z</time>
      </trkpt>
      <trkpt lat="47.29098" lon="4.92038">
        <ele>496</ele>
        <time>2016-01-19T13:43:22Z</time>
      </trkpt>
      <trkpt lat="47.29089" lon="4.92034">
        <ele>494.4</ele>
        <time>2016-01-19T13:43:30Z</time>
      </trkpt>
      <trkpt lat="47.29079" lon="4.92034">
        <ele>494.9</ele>
        <time>2016-01-19T13:43:40Z</time>
      </trkpt>
      <trkpt lat="47.2907" lon="4.92033">
        <ele>495.4</ele>
        <time>2016-01-19T13:43:50Z</time>
      </trkpt>
      <trkpt lat="47.2906" lon="4.9203">
        <ele>495.7</ele>
        <time>2016-01-19T13:43:58Z</time>
      </trkpt>
      <trkpt lat="47.2905" lon="4.92029">
        <ele>496.3</ele>
        <time>2016-01-19T13:44:06Z</time>
      </trkpt>
      <trkpt lat="47.2904" lon="4.92026">
        <ele>496.2</ele>
        <time>2016-01-19T13:44:14Z</time>
      </trkpt>
      <trkpt lat="47.29031" lon="4.92019">
        <ele>495.3</ele>
        <time>2016-01-19T13:44:24Z</time>
      </trkpt>
      <trkpt lat="47.29022" lon="4.92017">
        <ele>495.7</ele>
        <time>2016-01-19T13:44:34Z</time>
      </trkpt>
      <trkpt lat="47.29013" lon="4.9201">
        <ele>494.7</ele>
        <time>2016-01-19T13:44:46Z</time>
      </trkpt>
      <trkpt lat="47.29005" lon="4.92002">
        <ele>492.9</ele>
        <time>2016-01-19T13:44:55Z</time>
      </trkpt>
      <trkpt lat="47.28997" lon="4.91995">
        <ele>492</ele>
        <time>2016-01-19T13:45:06Z</time>
      </trkpt>
      <trkpt lat="47.28991" lon="4.91985">
        <ele>491.4</ele>
        <time>2016-01-19T13:45:13Z</time>
      </trkpt>
      <trkpt lat="47.28985" lon="4.91972">
        <ele>489.6</ele>
        <time>2016-01-19T13:45:20Z</time>
      </trkpt>
      <trkpt lat="47.2898" lon="4.91961">
        <ele>488.3</ele>
        <time>2016-01-19T13:45:29Z</time>
      </trkpt>
      <trkpt lat="47.28972" lon="4.91952">
        <ele>488.6</ele>
        <time>2016-01-19T13:45:39Z</time>
      </trkpt>
      <trkpt lat="47.28965" lon="4.91943">
        <ele>488.6</ele>
        <time>2016-01-19T13:45:51Z</time>
      </trkpt>
      <trkpt lat="47.28957" lon="4.91938">
        <ele>489.8</ele>
        <time>2016-01-19T13:46:01Z</time>
      </trkpt>
      <trkpt lat="47.28948" lon="4.91929">
        <ele>490.5</ele>
        <time>2016-01-19T13:46:11Z</time>
      </trkpt>
      <trkpt lat="47.28939" lon="4.91923">
        <ele>491.9</ele>
        <time>2016-01-19T13:46:17Z</time>
      </trkpt>
      <trkpt lat="47.2893" lon="4.91915">
        <ele>493.3</ele>
        <time>2016-01-19T13:46:25Z</time>
      </trkpt>
      <trkpt lat="47.28923" lon="4.91907">
        <ele>494.5</ele>
        <time>2016-01-19T13:46:32Z</time>
      </trkpt>
      <trkpt lat="47.28915" lon="4.91902">
        <ele>496.2</ele>
        <time>2016-01-19T13:46:42Z</time>
      </trkpt>
      <trkpt lat="47.28907" lon="4.91896">
        <ele>496.5</ele>
        <time>2016-01-19T13:46:48Z</time>
      </trkpt>
      <trkpt lat="47.28898" lon="4.91892">
        <ele>497.1</ele>
        <time>2016-01-19T13:46:58Z</time>
      </trkpt>
      <trkpt lat="47.28888" lon="4.91889">
        <ele>497.8</ele>
        <time>2016-01-19T13:47:07Z</time>
      </trkpt>
      <trkpt lat="47.28879" lon="4.91884">
        <ele>498.3</ele>
        <time>2016-01-19T13:47:17Z</time>
      </trkpt>
      <trkpt lat="47.2887" lon="4.91878">
        <ele>498.5</ele>
        <time>2016-01-19T13:47:26Z</time>
      </trkpt>
      <trkpt lat="47.2886" lon="4.91872">
        <ele>498.7</ele>
        <time>2016-01-19T13:47:33Z</time>
      </trkpt>
      <trkpt lat="47.28851" lon="4.91871">
        <ele>499.6</ele>
        <time>2016-01-19T13:47:44Z</time>
      </trkpt>
      <trkpt lat="47.28843" lon="4.91866">
        <ele>500</ele>
        <time>2016-01-19T13:47:57Z</time>
      </trkpt>
      <trkpt lat="47.28834" lon="4.91862">
        <ele>500.4</ele>
        <time>2016-01-19T13:48:05Z</time>
      </trkpt>
      <trkpt lat="47.28824" lon="4.91858">
        <ele>500.6</ele>
        <time>2016-01-19T13:48:14Z</time>
      </trkpt>
      <trkpt lat="47.28815" lon="4.91862">
        <ele>501.8</ele>
        <time>2016-01-19T13:48:23Z</time>
      </trkpt>
      <trkpt lat="47.28806" lon="4.91862">
        <ele>502.8</ele>
        <time>2016-01-19T13:48:29Z</time>
      </trkpt>
      <trkpt lat="47.28796" lon="4.91861">
        <ele>503.4</ele>
        <time>2016-01-19T13:48:36Z</time>
      </trkpt>
      <trkpt lat="47.28787" lon="4.91864">
        <ele>504.6</ele>
        <time>2016-01-19T13:48:46Z</time>
      </trkpt>
      <trkpt lat="47.28777" lon="4.91858">
        <ele>504.3</ele>
        <time>2016-01-19T13:48:54Z</time>
      </trkpt>
      <trkpt lat="47.28767" lon="4.91858">
        <ele>505.4</ele>
        <time>2016-01-19T13:49:06Z</time>
      </trkpt>
      <trkpt lat="47.28758" lon="4.9186">
        <ele>506.3</ele>
        <time>2016-01-19T13:49:15Z</time>
      </trkpt>
      <trkpt lat="47.28749" lon="4.91861">
        <ele>507.3</ele>
        <time>2016-01-19T13:49:28Z</time>
      </trkpt>
      <trkpt lat="47.28739" lon="4.9186">
        <ele>507.2</ele>
        <time>2016-01-19T13:49:40Z</time>
      </trkpt>
      <trkpt lat="47.28729" lon="4.91862">
        <ele>507.8</ele>
        <time>2016-01-19T13:49:48Z</time>
      </trkpt>
      <trkpt lat="47.2872" lon="4.9186">
        <ele>507.4</ele>
        <time>2016-01-19T13:49:52Z</time>
      </trkpt>
      <trkpt lat="47.2871" lon="4.91857">
        <ele>507</ele>
        <time>2016-01-19T13:50:03Z</time>
      </trkpt>
      <trkpt lat="47.28701" lon="4.91856">
        <ele>506.9</ele>
        <time>2016-01-19T13:50:12Z</time>
      </trkpt>
      <trkpt lat="47.28691" lon="4.9185">
        <ele>505.8</ele>
        <time>2016-01-19T13:50:18Z</time>
      </trkpt>
      <trkpt lat="47.28682" lon="4.91847">
        <ele>505</ele>
        <time>2016-01-19T13:50:29Z</time>
      </trkpt>
      <trkpt lat="47.28672" lon="4.91846">
        <ele>504.8</ele>
        <time>2016-01-19T13:50:38Z</time>
      </trkpt>
      <trkpt lat="47.28663" lon="4.91846">
        <ele>504.8</ele>
        <time>2016-01-19T13:50:44Z</time>
      </trkpt>
      <trkpt lat="47.28654" lon="4.91843">
        <ele>504.2</ele>
        <time>2016-01-19T13:50:58Z</time>
      </trkpt>
      <trkpt lat="47.28644" lon="4.91846">
        <ele>504.9</ele>
        <time>2016-01-19T13:51:05Z</time>
      </trkpt>
      <trkpt lat="47.28635" lon="4.91847">
        <ele>505.3</ele>
        <time>2016-01-19T13:51:22Z</time>
      </trkpt>
      <trkpt lat="47.28626" lon="4.91846">
        <ele>505</ele>
        <time>2016-01-19T13:51:30Z</time>
      </trkpt>
      <trkpt lat="47.28616" lon="4.91842">
        <ele>504.4</ele>
        <time>2016-01-19T13:51:36Z</time>
      </trkpt>
      <trkpt lat="47.28607" lon="4.91839">
        <ele>503.4</ele>
        <time>2016-01-19T13:51:43Z</time>
      </trkpt>
      <trkpt lat="47.28597" lon="4.91839">
        <ele>503.4</ele>
        <time>2016-01-19T13:51:51Z</time>
      </trkpt>
      <trkpt lat="47.28587" lon="4.91836">
        <ele>502.7</ele>
        <time>2016-01-19T13:51:59Z</time>
      </trkpt>
      <trkpt lat="47.28578" lon="4.91836">
        <ele>502.8</ele>
        <time>2016-01-19T13:52:12Z</time>
      </trkpt>
      <trkpt lat="47.28569" lon="4.91835">
        <ele>503.4</ele>
        <time>2016-01-19T13:52:20Z</time>
      </trkpt>
      <trkpt lat="47.2856" lon="4.9183">
        <ele>502.8</ele>
        <time>2016-01-19T13:52:25Z</time>
      </trkpt>
      <trkpt lat="47.28551" lon="4.91827">
        <ele>502.7</ele>
        <time>2016-01-19T13:52:37Z</time>
      </trkpt>
      <trkpt lat="47.28542" lon="4.91826">
        <ele>503.4</ele>
        <time>2016-01-19T13:52:54Z</time>
      </trkpt>
      <trkpt lat="47.28533" lon="4.91825">
        <ele>503.8</ele>
        <time>2016-01-19T13:53:05Z</time>
      </trkpt>
      <trkpt lat="47.28524" lon="4.91828">
        <ele>505</ele>
        <time>2016-01-19T13:53:14Z</time>
      </trkpt>
      <trkpt lat="47.28514" lon="4.91829">
        <ele>506</ele>
        <time>2016-01-19T13:53:20Z</time>
      </trkpt>
      <trkpt lat="47.28504" lon="4.91828">
        <ele>506.7</ele>
        <time>2016-01-19T13:53:28Z</time>
      </trkpt>
      <trkpt lat="47.28494" lon="4.91827">
        <ele>506.7</ele>
        <time>2016-01-19T13:53:33Z</time>
      </trkpt>
      <trkpt lat="47.28484" lon="4.91827">
        <ele>507.2</ele>
        <time>2016-01-19T13:53:41Z</time>
      </trkpt>
      <trkpt lat="47.28475" lon="4.91826">
        <ele>507.1</ele>
        <time>2016-01-19T13:53:48Z</time>
      </trkpt>
      <trkpt lat="47.28466" lon="4.91825">
        <ele>507.3</ele>
        <time>2016-01-19T13:53:55Z</time>
      </trkpt>
      <trkpt lat="47.28456" lon="4.9182">
        <ele>506.3</ele>
        <time>2016-01-19T13:54:01Z</time>
      </trkpt>
      <trkpt lat="47.28447" lon="4.91817">
        <ele>506</ele>
        <time>2016-01-19T13:54:08Z</time>
      </trkpt>
      <trkpt lat="47.28437" lon="4.91818">
        <ele>506.4</ele>
        <time>2016-01-19T13:54:16Z</time>
      </trkpt>
      <trkpt lat="47.28428" lon="4.91817">
        <ele>506.3</ele>
        <time>2016-01-19T13:54:22Z</time>
      </trkpt>
      <trkpt lat="47.28419" lon="4.91813">
        <ele>505.7</ele>
        <time>2016-01-19T13:54:28Z</time>
      </trkpt>
      <trkpt lat="47.28409" lon="4.91809">
        <ele>505.3</ele>
        <time>2016-01-19T13:54:36Z</time>
      </trkpt>
      <trkpt lat="47.28401" lon="4.91802">
        <ele>504.3</ele>
        <time>2016-01-19T13:54:46Z</time>
      </trkpt>
      <trkpt lat="47.28392" lon="4.91795">
        <ele>503.1</ele>
        <time>2016-01-19T13:54:55Z</time>
      </trkpt>
      <trkpt lat="47.28383" lon="4.9179">
        <ele>502.3</ele>
        <time>2016-01-19T13:55:02Z</time>
      </trkpt>
      <trkpt lat="47.28374" lon="4.91786">
        <ele>501.8</ele>
        <time>2016-01-19T13:55:11Z</time>
      </trkpt>
      <trkpt lat="47.28365" lon="4.91781">
        <ele>501</ele>
        <time>2016-01-19T13:55:19Z</time>
      </trkpt>
      <trkpt lat="47.28357" lon="4.91776">
        <ele>500.1</ele>
        <time>2016-01-19T13:55:29Z</time>
      </trkpt>
      <trkpt lat="47.28348" lon="4.9177">
        <ele>499.2</ele>
        <time>2016-01-19T13:55:39Z</time>
      </trkpt>
      <trkpt lat="47.28339" lon="4.91766">
        <ele>498.6</ele>
        <time>2016-01-19T13:55:49Z</time>
      </trkpt>
      <trkpt lat="47.28329" lon="4.91763">
        <ele>498.3</ele>
        <time>2016-01-19T13:55:56Z</time>
      </trkpt>
      <trkpt lat="47.2832" lon="4.9176">
        <ele>499.1</ele>
        <time>2016-01-19T13:56:06Z</time>
      </trkpt>
      <trkpt lat="47.28311" lon="4.91756">
        <ele>499</ele>
        <time>2016-01-19T13:56:15Z</time>
      </trkpt>
      <trkpt lat="47.28303" lon="4.9175">
        <ele>498.7</ele>
        <time>2016-01-19T13:56:22Z</time>
      </trkpt>
      <trkpt lat="47.28294" lon="4.91748">
        <ele>499.3</ele>
        <time>2016-01-19T13:56:30Z</time>
      </trkpt>
      <trkpt lat="47.28284" lon="4.91748">
        <ele>500.4</ele>
        <time>2016-01-19T13:56:40Z</time>
      </trkpt>
      <trkpt lat="47.28275" lon="4.91753">
        <ele>502.7</ele>
        <time>2016-01-19T13:56:52Z</time>
      </trkpt>
      <trkpt lat="47.28266" lon="4.91753">
        <ele>503.9</ele>
        <time>2016-01-19T13:57:02Z</time>
      </trkpt>
      <trkpt lat="47.28256" lon="4.91757">
        <ele>506.1</ele>
        <time>2016-01-19T13:57:22Z</time>
      </trkpt>
      <trkpt lat="47.28246" lon="4.91757">
        <ele>507.3</ele>
        <time>2016-01-19T13:57:33Z</time>
      </trkpt>
      <trkpt lat="47.28237" lon="4.91759">
        <ele>509</ele>
        <time>2016-01-19T13:57:54Z</time>
      </trkpt>
      <trkpt lat="47.28228" lon="4.9176">
        <ele>510</ele>
        <time>2016-01-19T13:58:07Z</time>
      </trkpt>
      <trkpt lat="47.28219" lon="4.91762">
        <ele>511.7</ele>
        <time>2016-01-19T13:58:20Z</time>
      </trkpt>
      <trkpt lat="47.2821" lon="4.91763">
        <ele>513</ele>
        <time>2016-01-19T13:58:36Z</time>
      </trkpt>
      <trkpt lat="47.282" lon="4.91765">
        <ele>514.4</ele>
        <time>2016-01-19T13:58:45Z</time>
      </trkpt>
      <trkpt lat="47.28191" lon="4.91765">
        <ele>515.4</ele>
        <time>2016-01-19T13:59:00Z</time>
      </trkpt>
      <trkpt lat="47.28182" lon="4.91765">
        <ele>516.4</ele>
        <time>2016-01-19T13:59:40Z</time>
      </trkpt>
      <trkpt lat="47.28174" lon="4.91771">
        <ele>519</ele>
        <time>2016-01-19T14:01:15Z</time>
      </trkpt>
      <trkpt lat="47.28165" lon="4.91776">
        <ele>520.9</ele>
        <time>2016-01-19T14:01:28Z</time>
      </trkpt>
      <trkpt lat="47.28155" lon="4.91775">
        <ele>521.2</ele>
        <time>2016-01-19T14:01:42Z</time>
      </trkpt>
      <trkpt lat="47.28145" lon="4.91777">
        <ele>521.8</ele>
        <time>2016-01-19T14:01:51Z</time>
      </trkpt>
      <trkpt lat="47.28135" lon="4.91778">
        <ele>522.4</ele>
        <time>2016-01-19T14:01:59Z</time>
      </trkpt>
      <trkpt lat="47.28126" lon="4.91782">
        <ele>523.7</ele>
        <time>2016-01-19T14:02:08Z</time>
      </trkpt>
      <trkpt lat="47.28116" lon="4.9178">
        <ele>523.7</ele>
        <time>2016-01-19T14:02:16Z</time>
      </trkpt>
      <trkpt lat="47.28106" lon="4.91779">
        <ele>523.6</ele>
        <time>2016-01-19T14:02:27Z</time>
      </trkpt>
      <trkpt lat="47.28096" lon="4.91781">
        <ele>524.5</ele>
        <time>2016-01-19T14:02:35Z</time>
      </trkpt>
      <trkpt lat="47.28087" lon="4.91781">
        <ele>524.4</ele>
        <time>2016-01-19T14:02:42Z</time>
      </trkpt>
      <trkpt lat="47.28077" lon="4.91779">
        <ele>524.4</ele>
        <time>2016-01-19T14:02:51Z</time>
      </trkpt>
      <trkpt lat="47.28068" lon="4.91774">
        <ele>523.4</ele>
        <time>2016-01-19T14:02:58Z</time>
      </trkpt>
      <trkpt lat="47.28059" lon="4.91766">
        <ele>521.7</ele>
        <time>2016-01-19T14:03:05Z</time>
      </trkpt>
      <trkpt lat="47.2805" lon="4.91764">
        <ele>521.3</ele>
        <time>2016-01-19T14:03:14Z</time>
      </trkpt>
      <trkpt lat="47.28041" lon="4.91758">
        <ele>520.1</ele>
        <time>2016-01-19T14:03:25Z</time>
      </trkpt>
      <trkpt lat="47.28034" lon="4.91748">
        <ele>517.5</ele>
        <time>2016-01-19T14:03:37Z</time>
      </trkpt>
      <trkpt lat="47.28027" lon="4.91739">
        <ele>515.5</ele>
        <time>2016-01-19T14:03:56Z</time>
      </trkpt>
      <trkpt lat="47.28019" lon="4.91732">
        <ele>514</ele>
        <time>2016-01-19T14:04:06Z</time>
      </trkpt>
      <trkpt lat="47.2801" lon="4.91734">
        <ele>514.9</ele>
        <time>2016-01-19T14:04:14Z</time>
      </trkpt>
      <trkpt lat="47.28" lon="4.91737">
        <ele>515.4</ele>
        <time>2016-01-19T14:04:27Z</time>
      </trkpt>
      <trkpt lat="47.27991" lon="4.91743">
        <ele>517.2</ele>
        <time>2016-01-19T14:04:35Z</time>
      </trkpt>
      <trkpt lat="47.27983" lon="4.9175">
        <ele>519.2</ele>
        <time>2016-01-19T14:04:41Z</time>
      </trkpt>
      <trkpt lat="47.27977" lon="4.91762">
        <ele>522.3</ele>
        <time>2016-01-19T14:04:51Z</time>
      </trkpt>
      <trkpt lat="47.27972" lon="4.91773">
        <ele>524.9</ele>
        <time>2016-01-19T14:05:02Z</time>
      </trkpt>
      <trkpt lat="47.27966" lon="4.91783">
        <ele>527.4</ele>
        <time>2016-01-19T14:05:16Z</time>
      </trkpt>
      <trkpt lat="47.27959" lon="4.91793">
        <ele>529.6</ele>
        <time>2016-01-19T14:05:29Z</time>
      </trkpt>
      <trkpt lat="47.27956" lon="4.91806">
        <ele>532.5</ele>
        <time>2016-01-19T14:05:38Z</time>
      </trkpt>
      <trkpt lat="47.27952" lon="4.91819">
        <ele>535.1</ele>
        <time>2016-01-19T14:05:46Z</time>
      </trkpt>
      <trkpt lat="47.27947" lon="4.91832">
        <ele>537.6</ele>
        <time>2016-01-19T14:05:59Z</time>
      </trkpt>
      <trkpt lat="47.27943" lon="4.91846">
        <ele>539.6</ele>
        <time>2016-01-19T14:06:06Z</time>
      </trkpt>
      <trkpt lat="47.27942" lon="4.91861">
        <ele>542</ele>
        <time>2016-01-19T14:06:13Z</time>
      </trkpt>
      <trkpt lat="47.27938" lon="4.91873">
        <ele>543.4</ele>
        <time>2016-01-19T14:06:19Z</time>
      </trkpt>
      <trkpt lat="47.27937" lon="4.91887">
        <ele>545.2</ele>
        <time>2016-01-19T14:06:26Z</time>
      </trkpt>
      <trkpt lat="47.27938" lon="4.919">
        <ele>547.7</ele>
        <time>2016-01-19T14:06:35Z</time>
      </trkpt>
      <trkpt lat="47.27937" lon="4.91913">
        <ele>549.5</ele>
        <time>2016-01-19T14:06:42Z</time>
      </trkpt>
      <trkpt lat="47.27941" lon="4.91927">
        <ele>550.8</ele>
        <time>2016-01-19T14:06:51Z</time>
      </trkpt>
      <trkpt lat="47.27944" lon="4.9194">
        <ele>551.4</ele>
        <time>2016-01-19T14:07:00Z</time>
      </trkpt>
      <trkpt lat="47.27948" lon="4.91951">
        <ele>552.6</ele>
        <time>2016-01-19T14:07:09Z</time>
      </trkpt>
      <trkpt lat="47.27953" lon="4.91963">
        <ele>553.9</ele>
        <time>2016-01-19T14:07:21Z</time>
      </trkpt>
      <trkpt lat="47.27955" lon="4.91976">
        <ele>554.5</ele>
        <time>2016-01-19T14:07:30Z</time>
      </trkpt>
      <trkpt lat="47.27959" lon="4.91989">
        <ele>555.6</ele>
        <time>2016-01-19T14:07:38Z</time>
      </trkpt>
      <trkpt lat="47.27962" lon="4.92002">
        <ele>556.8</ele>
        <time>2016-01-19T14:07:46Z</time>
      </trkpt>
      <trkpt lat="47.27966" lon="4.92015">
        <ele>556.4</ele>
        <time>2016-01-19T14:07:54Z</time>
      </trkpt>
      <trkpt lat="47.27968" lon="4.92029">
        <ele>555.3</ele>
        <time>2016-01-19T14:08:01Z</time>
      </trkpt>
      <trkpt lat="47.27973" lon="4.92041">
        <ele>555.4</ele>
        <time>2016-01-19T14:08:09Z</time>
      </trkpt>
      <trkpt lat="47.27978" lon="4.92052">
        <ele>555.8</ele>
        <time>2016-01-19T14:08:17Z</time>
      </trkpt>
      <trkpt lat="47.27983" lon="4.92065">
        <ele>556.1</ele>
        <time>2016-01-19T14:08:25Z</time>
      </trkpt>
      <trkpt lat="47.2799" lon="4.92074">
        <ele>557.6</ele>
        <time>2016-01-19T14:08:35Z</time>
      </trkpt>
      <trkpt lat="47.27998" lon="4.92082">
        <ele>559.3</ele>
        <time>2016-01-19T14:08:45Z</time>
      </trkpt>
      <trkpt lat="47.28006" lon="4.92089">
        <ele>560.2</ele>
        <time>2016-01-19T14:08:54Z</time>
      </trkpt>
      <trkpt lat="47.28013" lon="4.92097">
        <ele>560.4</ele>
        <time>2016-01-19T14:09:07Z</time>
      </trkpt>
      <trkpt lat="47.28022" lon="4.92101">
        <ele>561.7</ele>
        <time>2016-01-19T14:09:19Z</time>
      </trkpt>
      <trkpt lat="47.2803" lon="4.92109">
        <ele>562.5</ele>
        <time>2016-01-19T14:09:30Z</time>
      </trkpt>
      <trkpt lat="47.28034" lon="4.92122">
        <ele>561.4</ele>
        <time>2016-01-19T14:09:37Z</time>
      </trkpt>
      <trkpt lat="47.28042" lon="4.92128">
        <ele>562.8</ele>
        <time>2016-01-19T14:09:45Z</time>
      </trkpt>
      <trkpt lat="47.28047" lon="4.92141">
        <ele>562.4</ele>
        <time>2016-01-19T14:09:55Z</time>
      </trkpt>
      <trkpt lat="47.28055" lon="4.92148">
        <ele>563.9</ele>
        <time>2016-01-19T14:10:17Z</time>
      </trkpt>
      <trkpt lat="47.28064" lon="4.92151">
        <ele>566.5</ele>
        <time>2016-01-19T14:10:27Z</time>
      </trkpt>
      <trkpt lat="47.28073" lon="4.92154">
        <ele>568.9</ele>
        <time>2016-01-19T14:10:35Z</time>
      </trkpt>
      <trkpt lat="47.28082" lon="4.92161">
        <ele>571</ele>
        <time>2016-01-19T14:10:45Z</time>
      </trkpt>
      <trkpt lat="47.28089" lon="4.9217">
        <ele>571.1</ele>
        <time>2016-01-19T14:10:54Z</time>
      </trkpt>
      <trkpt lat="47.28093" lon="4.92183">
        <ele>569.1</ele>
        <time>2016-01-19T14:11:00Z</time>
      </trkpt>
      <trkpt lat="47.28098" lon="4.92194">
        <ele>568</ele>
        <time>2016-01-19T14:11:11Z</time>
      </trkpt>
      <trkpt lat="47.28107" lon="4.92201">
        <ele>568.1</ele>
        <time>2016-01-19T14:11:24Z</time>
      </trkpt>
      <trkpt lat="47.28117" lon="4.92203">
        <ele>569.5</ele>
        <time>2016-01-19T14:11:34Z</time>
      </trkpt>
      <trkpt lat="47.28125" lon="4.92212">
        <ele>569.6</ele>
        <time>2016-01-19T14:11:45Z</time>
      </trkpt>
      <trkpt lat="47.2813" lon="4.92223">
        <ele>569.1</ele>
        <time>2016-01-19T14:11:53Z</time>
      </trkpt>
      <trkpt lat="47.28133" lon="4.92236">
        <ele>568.2</ele>
        <time>2016-01-19T14:12:01Z</time>
      </trkpt>
      <trkpt lat="47.28141" lon="4.92243">
        <ele>569.3</ele>
        <time>2016-01-19T14:12:11Z</time>
      </trkpt>
      <trkpt lat="47.28144" lon="4.92256">
        <ele>568.4</ele>
        <time>2016-01-19T14:13:49Z</time>
      </trkpt>
      <trkpt lat="47.28152" lon="4.92263">
        <ele>569.4</ele>
        <time>2016-01-19T14:14:12Z</time>
      </trkpt>
      <trkpt lat="47.28161" lon="4.92267">
        <ele>571.2</ele>
        <time>2016-01-19T14:14:23Z</time>
      </trkpt>
      <trkpt lat="47.2817" lon="4.9227">
        <ele>572.8</ele>
        <time>2016-01-19T14:14:32Z</time>
      </trkpt>
      <trkpt lat="47.28178" lon="4.92275">
        <ele>573.2</ele>
        <time>2016-01-19T14:14:41Z</time>
      </trkpt>
      <trkpt lat="47.28186" lon="4.92282">
        <ele>573.4</ele>
        <time>2016-01-19T14:14:51Z</time>
      </trkpt>
      <trkpt lat="47.28192" lon="4.92293">
        <ele>573.2</ele>
        <time>2016-01-19T14:15:01Z</time>
      </trkpt>
      <trkpt lat="47.28197" lon="4.92305">
        <ele>572.9</ele>
        <time>2016-01-19T14:15:11Z</time>
      </trkpt>
      <trkpt lat="47.28205" lon="4.92312">
        <ele>573.7</ele>
        <time>2016-01-19T14:15:22Z</time>
      </trkpt>
      <trkpt lat="47.28211" lon="4.92323">
        <ele>573.9</ele>
        <time>2016-01-19T14:15:32Z</time>
      </trkpt>
      <trkpt lat="47.28218" lon="4.92332">
        <ele>574.6</ele>
        <time>2016-01-19T14:15:41Z</time>
      </trkpt>
      <trkpt lat="47.28224" lon="4.92342">
        <ele>574.6</ele>
        <time>2016-01-19T14:15:49Z</time>
      </trkpt>
      <trkpt lat="47.28231" lon="4.92352">
        <ele>574.9</ele>
        <time>2016-01-19T14:15:58Z</time>
      </trkpt>
      <trkpt lat="47.28239" lon="4.92358">
        <ele>576</ele>
        <time>2016-01-19T14:16:08Z</time>
      </trkpt>
      <trkpt lat="47.28246" lon="4.92367">
        <ele>576.5</ele>
        <time>2016-01-19T14:16:19Z</time>
      </trkpt>
      <trkpt lat="47.28255" lon="4.92371">
        <ele>577.4</ele>
        <time>2016-01-19T14:16:31Z</time>
      </trkpt>
      <trkpt lat="47.28263" lon="4.92379">
        <ele>577.3</ele>
        <time>2016-01-19T14:16:40Z</time>
      </trkpt>
      <trkpt lat="47.28271" lon="4.92388">
        <ele>577.3</ele>
        <time>2016-01-19T14:16:52Z</time>
      </trkpt>
      <trkpt lat="47.28278" lon="4.92396">
        <ele>577.2</ele>
        <time>2016-01-19T14:17:05Z</time>
      </trkpt>
      <trkpt lat="47.28283" lon="4.92408">
        <ele>576.8</ele>
        <time>2016-01-19T14:17:17Z</time>
      </trkpt>
      <trkpt lat="47.28286" lon="4.92421">
        <ele>575.8</ele>
        <time>2016-01-19T14:18:28Z</time>
      </trkpt>
      <trkpt lat="47.28292" lon="4.9243">
        <ele>575.5</ele>
        <time>2016-01-19T14:18:40Z</time>
      </trkpt>
      <trkpt lat="47.28302" lon="4.92431">
        <ele>576.7</ele>
        <time>2016-01-19T14:18:53Z</time>
      </trkpt>
      <trkpt lat="47.28309" lon="4.92439">
        <ele>577.1</ele>
        <time>2016-01-19T14:19:02Z</time>
      </trkpt>
      <trkpt lat="47.28317" lon="4.92448">
        <ele>577.8</ele>
        <time>2016-01-19T14:19:12Z</time>
      </trkpt>
      <trkpt lat="47.28325" lon="4.92455">
        <ele>578.7</ele>
        <time>2016-01-19T14:19:22Z</time>
      </trkpt>
      <trkpt lat="47.28334" lon="4.9246">
        <ele>580</ele>
        <time>2016-01-19T14:19:33Z</time>
      </trkpt>
      <trkpt lat="47.28341" lon="4.92468">
        <ele>580</ele>
        <time>2016-01-19T14:19:46Z</time>
      </trkpt>
      <trkpt lat="47.2835" lon="4.92474">
        <ele>580.3</ele>
        <time>2016-01-19T14:19:57Z</time>
      </trkpt>
      <trkpt lat="47.28358" lon="4.92482">
        <ele>580.5</ele>
        <time>2016-01-19T14:20:06Z</time>
      </trkpt>
      <trkpt lat="47.28365" lon="4.92489">
        <ele>580.8</ele>
        <time>2016-01-19T14:20:17Z</time>
      </trkpt>
      <trkpt lat="47.28372" lon="4.92498">
        <ele>580.9</ele>
        <time>2016-01-19T14:20:29Z</time>
      </trkpt>
      <trkpt lat="47.28379" lon="4.92507">
        <ele>581</ele>
        <time>2016-01-19T14:20:40Z</time>
      </trkpt>
      <trkpt lat="47.28387" lon="4.92512">
        <ele>581.4</ele>
        <time>2016-01-19T14:20:51Z</time>
      </trkpt>
      <trkpt lat="47.28395" lon="4.9252">
        <ele>581.8</ele>
        <time>2016-01-19T14:20:57Z</time>
      </trkpt>
      <trkpt lat="47.28401" lon="4.92533">
        <ele>582</ele>
        <time>2016-01-19T14:21:04Z</time>
      </trkpt>
      <trkpt lat="47.28407" lon="4.92543">
        <ele>582.4</ele>
        <time>2016-01-19T14:22:14Z</time>
      </trkpt>
      <trkpt lat="47.28414" lon="4.92551">
        <ele>583.1</ele>
        <time>2016-01-19T14:22:29Z</time>
      </trkpt>
      <trkpt lat="47.28423" lon="4.92558">
        <ele>583.5</ele>
        <time>2016-01-19T14:22:42Z</time>
      </trkpt>
      <trkpt lat="47.28429" lon="4.92568">
        <ele>583.6</ele>
        <time>2016-01-19T14:22:52Z</time>
      </trkpt>
      <trkpt lat="47.28434" lon="4.9258">
        <ele>583.7</ele>
        <time>2016-01-19T14:23:03Z</time>
      </trkpt>
      <trkpt lat="47.28475" lon="4.92631">
        <ele>584.9</ele>
        <time>2016-01-19T14:23:48Z</time>
      </trkpt>
      <trkpt lat="47.28474" lon="4.92645">
        <ele>584.8</ele>
        <time>2016-01-19T14:24:23Z</time>
      </trkpt>
      <trkpt lat="47.28469" lon="4.92657">
        <ele>584.6</ele>
        <time>2016-01-19T14:24:33Z</time>
      </trkpt>
      <trkpt lat="47.28468" lon="4.9267">
        <ele>584.5</ele>
        <time>2016-01-19T14:24:53Z</time>
      </trkpt>
      <trkpt lat="47.28462" lon="4.92681">
        <ele>584.1</ele>
        <time>2016-01-19T14:27:53Z</time>
      </trkpt>
      <trkpt lat="47.28471" lon="4.92679">
        <ele>584.6</ele>
        <time>2016-01-19T14:32:21Z</time>
      </trkpt>
      <trkpt lat="47.28461" lon="4.92679">
        <ele>584.1</ele>
        <time>2016-01-19T14:37:03Z</time>
      </trkpt>
      <trkpt lat="47.28452" lon="4.92682">
        <ele>583.6</ele>
        <time>2016-01-19T14:37:20Z</time>
      </trkpt>
      <trkpt lat="47.28444" lon="4.92688">
        <ele>583.1</ele>
        <time>2016-01-19T14:37:32Z</time>
      </trkpt>
      <trkpt lat="47.28435" lon="4.92695">
        <ele>582.6</ele>
        <time>2016-01-19T14:37:43Z</time>
      </trkpt>
      <trkpt lat="47.28426" lon="4.92701">
        <ele>582.1</ele>
        <time>2016-01-19T14:37:52Z</time>
      </trkpt>
      <trkpt lat="47.28418" lon="4.92708">
        <ele>581.6</ele>
        <time>2016-01-19T14:38:02Z</time>
      </trkpt>
      <trkpt lat="47.2841" lon="4.92715">
        <ele>580.8</ele>
        <time>2016-01-19T14:38:16Z</time>
      </trkpt>
      <trkpt lat="47.28402" lon="4.9272">
        <ele>580</ele>
        <time>2016-01-19T14:38:23Z</time>
      </trkpt>
      <trkpt lat="47.28393" lon="4.92728">
        <ele>579.3</ele>
        <time>2016-01-19T14:38:31Z</time>
      </trkpt>
      <trkpt lat="47.28385" lon="4.92734">
        <ele>578.8</ele>
        <time>2016-01-19T14:38:37Z</time>
      </trkpt>
      <trkpt lat="47.28378" lon="4.92744">
        <ele>578.5</ele>
        <time>2016-01-19T14:38:45Z</time>
      </trkpt>
      <trkpt lat="47.28372" lon="4.92754">
        <ele>578.5</ele>
        <time>2016-01-19T14:38:54Z</time>
      </trkpt>
      <trkpt lat="47.28366" lon="4.92766">
        <ele>578.6</ele>
        <time>2016-01-19T14:39:04Z</time>
      </trkpt>
      <trkpt lat="47.28361" lon="4.92778">
        <ele>578.6</ele>
        <time>2016-01-19T14:39:15Z</time>
      </trkpt>
      <trkpt lat="47.28355" lon="4.92789">
        <ele>578.7</ele>
        <time>2016-01-19T14:39:25Z</time>
      </trkpt>
      <trkpt lat="47.28349" lon="4.92799">
        <ele>578.7</ele>
        <time>2016-01-19T14:39:35Z</time>
      </trkpt>
      <trkpt lat="47.28342" lon="4.92809">
        <ele>578.7</ele>
        <time>2016-01-19T14:39:45Z</time>
      </trkpt>
      <trkpt lat="47.28335" lon="4.92818">
        <ele>578.6</ele>
        <time>2016-01-19T14:39:55Z</time>
      </trkpt>
      <trkpt lat="47.28328" lon="4.92826">
        <ele>578.3</ele>
        <time>2016-01-19T14:40:07Z</time>
      </trkpt>
      <trkpt lat="47.28321" lon="4.92835">
        <ele>578.1</ele>
        <time>2016-01-19T14:40:19Z</time>
      </trkpt>
      <trkpt lat="47.28315" lon="4.92846">
        <ele>577.9</ele>
        <time>2016-01-19T14:40:27Z</time>
      </trkpt>
      <trkpt lat="47.28309" lon="4.92861">
        <ele>577.9</ele>
        <time>2016-01-19T14:40:34Z</time>
      </trkpt>
      <trkpt lat="47.28304" lon="4.92874">
        <ele>577.9</ele>
        <time>2016-01-19T14:40:43Z</time>
      </trkpt>
      <trkpt lat="47.28294" lon="4.92875">
        <ele>577.4</ele>
        <time>2016-01-19T14:40:55Z</time>
      </trkpt>
      <trkpt lat="47.28295" lon="4.92861">
        <ele>577.1</ele>
        <time>2016-01-19T14:41:13Z</time>
      </trkpt>
      <trkpt lat="47.28294" lon="4.92848">
        <ele>576.6</ele>
        <time>2016-01-19T14:41:27Z</time>
      </trkpt>
      <trkpt lat="47.28286" lon="4.92841">
        <ele>575.8</ele>
        <time>2016-01-19T14:41:37Z</time>
      </trkpt>
      <trkpt lat="47.28279" lon="4.9283">
        <ele>574.7</ele>
        <time>2016-01-19T14:41:47Z</time>
      </trkpt>
      <trkpt lat="47.2827" lon="4.92827">
        <ele>573.8</ele>
        <time>2016-01-19T14:41:56Z</time>
      </trkpt>
      <trkpt lat="47.28261" lon="4.92822">
        <ele>572.4</ele>
        <time>2016-01-19T14:42:02Z</time>
      </trkpt>
      <trkpt lat="47.28253" lon="4.9282">
        <ele>571.5</ele>
        <time>2016-01-19T14:42:10Z</time>
      </trkpt>
      <trkpt lat="47.28243" lon="4.9282">
        <ele>571.2</ele>
        <time>2016-01-19T14:42:19Z</time>
      </trkpt>
      <trkpt lat="47.28233" lon="4.92821">
        <ele>571.1</ele>
        <time>2016-01-19T14:42:28Z</time>
      </trkpt>
      <trkpt lat="47.28224" lon="4.92822">
        <ele>571.1</ele>
        <time>2016-01-19T14:42:41Z</time>
      </trkpt>
      <trkpt lat="47.28214" lon="4.92821">
        <ele>570.8</ele>
        <time>2016-01-19T14:42:53Z</time>
      </trkpt>
      <trkpt lat="47.28206" lon="4.92826">
        <ele>571.6</ele>
        <time>2016-01-19T14:43:00Z</time>
      </trkpt>
      <trkpt lat="47.28197" lon="4.92831">
        <ele>572.5</ele>
        <time>2016-01-19T14:43:08Z</time>
      </trkpt>
      <trkpt lat="47.28188" lon="4.92835">
        <ele>573.1</ele>
        <time>2016-01-19T14:43:15Z</time>
      </trkpt>
      <trkpt lat="47.2818" lon="4.92845">
        <ele>573.4</ele>
        <time>2016-01-19T14:43:24Z</time>
      </trkpt>
      <trkpt lat="47.28172" lon="4.9285">
        <ele>573.6</ele>
        <time>2016-01-19T14:43:32Z</time>
      </trkpt>
      <trkpt lat="47.28163" lon="4.92853">
        <ele>573.7</ele>
        <time>2016-01-19T14:43:41Z</time>
      </trkpt>
      <trkpt lat="47.28153" lon="4.92854">
        <ele>573.6</ele>
        <time>2016-01-19T14:43:49Z</time>
      </trkpt>
      <trkpt lat="47.28144" lon="4.92853">
        <ele>573.5</ele>
        <time>2016-01-19T14:44:02Z</time>
      </trkpt>
      <trkpt lat="47.28135" lon="4.92856">
        <ele>573.5</ele>
        <time>2016-01-19T14:44:10Z</time>
      </trkpt>
      <trkpt lat="47.28126" lon="4.92857">
        <ele>573.6</ele>
        <time>2016-01-19T14:44:22Z</time>
      </trkpt>
      <trkpt lat="47.28117" lon="4.9286">
        <ele>573.7</ele>
        <time>2016-01-19T14:44:31Z</time>
      </trkpt>
      <trkpt lat="47.28107" lon="4.92864">
        <ele>573.9</ele>
        <time>2016-01-19T14:44:38Z</time>
      </trkpt>
      <trkpt lat="47.28097" lon="4.92864">
        <ele>573.9</ele>
        <time>2016-01-19T14:44:47Z</time>
      </trkpt>
      <trkpt lat="47.28089" lon="4.9286">
        <ele>573.5</ele>
        <time>2016-01-19T14:45:00Z</time>
      </trkpt>
      <trkpt lat="47.2808" lon="4.92858">
        <ele>573.4</ele>
        <time>2016-01-19T14:45:10Z</time>
      </trkpt>
      <trkpt lat="47.2807" lon="4.9286">
        <ele>573.5</ele>
        <time>2016-01-19T14:45:21Z</time>
      </trkpt>
      <trkpt lat="47.2806" lon="4.92859">
        <ele>573.4</ele>
        <time>2016-01-19T14:45:29Z</time>
      </trkpt>
      <trkpt lat="47.2805" lon="4.92859">
        <ele>573.5</ele>
        <time>2016-01-19T14:45:36Z</time>
      </trkpt>
      <trkpt lat="47.28041" lon="4.92857">
        <ele>573.2</ele>
        <time>2016-01-19T14:45:42Z</time>
      </trkpt>
      <trkpt lat="47.28031" lon="4.92856">
        <ele>573.1</ele>
        <time>2016-01-19T14:45:55Z</time>
      </trkpt>
      <trkpt lat="47.28021" lon="4.92854">
        <ele>573</ele>
        <time>2016-01-19T14:46:03Z</time>
      </trkpt>
      <trkpt lat="47.28012" lon="4.92852">
        <ele>572.7</ele>
        <time>2016-01-19T14:46:11Z</time>
      </trkpt>
      <trkpt lat="47.28003" lon="4.92851">
        <ele>572.6</ele>
        <time>2016-01-19T14:46:18Z</time>
      </trkpt>
      <trkpt lat="47.27994" lon="4.92849">
        <ele>572.7</ele>
        <time>2016-01-19T14:46:24Z</time>
      </trkpt>
      <trkpt lat="47.27984" lon="4.92846">
        <ele>572.8</ele>
        <time>2016-01-19T14:46:34Z</time>
      </trkpt>
      <trkpt lat="47.27974" lon="4.92846">
        <ele>573.1</ele>
        <time>2016-01-19T14:46:47Z</time>
      </trkpt>
      <trkpt lat="47.27964" lon="4.92844">
        <ele>573.2</ele>
        <time>2016-01-19T14:46:57Z</time>
      </trkpt>
      <trkpt lat="47.27954" lon="4.92842">
        <ele>573.4</ele>
        <time>2016-01-19T14:47:04Z</time>
      </trkpt>
      <trkpt lat="47.27944" lon="4.92844">
        <ele>573.9</ele>
        <time>2016-01-19T14:47:15Z</time>
      </trkpt>
      <trkpt lat="47.27936" lon="4.9285">
        <ele>574.7</ele>
        <time>2016-01-19T14:47:25Z</time>
      </trkpt>
      <trkpt lat="47.27926" lon="4.92851">
        <ele>575.1</ele>
        <time>2016-01-19T14:47:32Z</time>
      </trkpt>
      <trkpt lat="47.27918" lon="4.92856">
        <ele>575.8</ele>
        <time>2016-01-19T14:47:39Z</time>
      </trkpt>
      <trkpt lat="47.27913" lon="4.92868">
        <ele>576.6</ele>
        <time>2016-01-19T14:47:51Z</time>
      </trkpt>
      <trkpt lat="47.27919" lon="4.92879">
        <ele>577.8</ele>
        <time>2016-01-19T14:48:07Z</time>
      </trkpt>
      <trkpt lat="47.27927" lon="4.92885">
        <ele>578</ele>
        <time>2016-01-19T14:48:18Z</time>
      </trkpt>
      <trkpt lat="47.27936" lon="4.92891">
        <ele>578.3</ele>
        <time>2016-01-19T14:48:30Z</time>
      </trkpt>
      <trkpt lat="47.27943" lon="4.929">
        <ele>578.9</ele>
        <time>2016-01-19T14:48:39Z</time>
      </trkpt>
      <trkpt lat="47.27951" lon="4.92908">
        <ele>579.4</ele>
        <time>2016-01-19T14:48:50Z</time>
      </trkpt>
      <trkpt lat="47.27958" lon="4.92917">
        <ele>580</ele>
        <time>2016-01-19T14:48:59Z</time>
      </trkpt>
      <trkpt lat="47.27964" lon="4.92927">
        <ele>579.7</ele>
        <time>2016-01-19T14:49:08Z</time>
      </trkpt>
      <trkpt lat="47.27971" lon="4.92937">
        <ele>579.5</ele>
        <time>2016-01-19T14:49:19Z</time>
      </trkpt>
      <trkpt lat="47.27978" lon="4.92948">
        <ele>579.4</ele>
        <time>2016-01-19T14:49:28Z</time>
      </trkpt>
      <trkpt lat="47.27984" lon="4.92958">
        <ele>579.4</ele>
        <time>2016-01-19T14:49:40Z</time>
      </trkpt>
      <trkpt lat="47.27993" lon="4.92966">
        <ele>579.5</ele>
        <time>2016-01-19T14:49:51Z</time>
      </trkpt>
      <trkpt lat="47.27998" lon="4.92977">
        <ele>579.7</ele>
        <time>2016-01-19T14:49:59Z</time>
      </trkpt>
      <trkpt lat="47.28002" lon="4.92989">
        <ele>579.8</ele>
        <time>2016-01-19T14:50:08Z</time>
      </trkpt>
      <trkpt lat="47.28008" lon="4.93002">
        <ele>579.9</ele>
        <time>2016-01-19T14:50:15Z</time>
      </trkpt>
      <trkpt lat="47.28014" lon="4.93013">
        <ele>579.6</ele>
        <time>2016-01-19T14:50:22Z</time>
      </trkpt>
      <trkpt lat="47.2802" lon="4.93023">
        <ele>579.3</ele>
        <time>2016-01-19T14:50:31Z</time>
      </trkpt>
      <trkpt lat="47.28025" lon="4.93035">
        <ele>579</ele>
        <time>2016-01-19T14:50:39Z</time>
      </trkpt>
      <trkpt lat="47.28028" lon="4.93049">
        <ele>578.7</ele>
        <time>2016-01-19T14:50:48Z</time>
      </trkpt>
      <trkpt lat="47.2803" lon="4.93063">
        <ele>578.4</ele>
        <time>2016-01-19T14:50:54Z</time>
      </trkpt>
      <trkpt lat="47.28037" lon="4.93074">
        <ele>578.2</ele>
        <time>2016-01-19T14:51:01Z</time>
      </trkpt>
      <trkpt lat="47.28044" lon="4.93085">
        <ele>577.9</ele>
        <time>2016-01-19T14:51:08Z</time>
      </trkpt>
      <trkpt lat="47.28051" lon="4.93094">
        <ele>577.5</ele>
        <time>2016-01-19T14:51:16Z</time>
      </trkpt>
      <trkpt lat="47.28058" lon="4.93105">
        <ele>577</ele>
        <time>2016-01-19T14:51:24Z</time>
      </trkpt>
      <trkpt lat="47.28063" lon="4.93118">
        <ele>576.6</ele>
        <time>2016-01-19T14:51:31Z</time>
      </trkpt>
      <trkpt lat="47.28067" lon="4.93131">
        <ele>576.2</ele>
        <time>2016-01-19T14:51:38Z</time>
      </trkpt>
      <trkpt lat="47.28072" lon="4.93143">
        <ele>576</ele>
        <time>2016-01-19T14:51:46Z</time>
      </trkpt>
      <trkpt lat="47.2808" lon="4.93149">
        <ele>576.2</ele>
        <time>2016-01-19T14:52:00Z</time>
      </trkpt>
      <trkpt lat="47.28089" lon="4.93151">
        <ele>576.4</ele>
        <time>2016-01-19T14:52:14Z</time>
      </trkpt>
      <trkpt lat="47.28098" lon="4.93155">
        <ele>576.3</ele>
        <time>2016-01-19T14:52:29Z</time>
      </trkpt>
      <trkpt lat="47.28107" lon="4.93157">
        <ele>576.3</ele>
        <time>2016-01-19T14:52:38Z</time>
      </trkpt>
      <trkpt lat="47.28114" lon="4.93166">
        <ele>576</ele>
        <time>2016-01-19T14:54:21Z</time>
      </trkpt>
      <trkpt lat="47.2812" lon="4.93175">
        <ele>575.7</ele>
        <time>2016-01-19T14:54:32Z</time>
      </trkpt>
      <trkpt lat="47.28125" lon="4.93187">
        <ele>575.3</ele>
        <time>2016-01-19T14:54:43Z</time>
      </trkpt>
      <trkpt lat="47.28134" lon="4.93188">
        <ele>575.4</ele>
        <time>2016-01-19T14:56:10Z</time>
      </trkpt>
      <trkpt lat="47.28143" lon="4.93188">
        <ele>575.5</ele>
        <time>2016-01-19T14:56:42Z</time>
      </trkpt>
      <trkpt lat="47.2815" lon="4.93197">
        <ele>575.4</ele>
        <time>2016-01-19T14:56:51Z</time>
      </trkpt>
      <trkpt lat="47.28158" lon="4.93205">
        <ele>575.4</ele>
        <time>2016-01-19T14:57:00Z</time>
      </trkpt>
      <trkpt lat="47.28166" lon="4.93212">
        <ele>575.5</ele>
        <time>2016-01-19T14:57:10Z</time>
      </trkpt>
      <trkpt lat="47.28173" lon="4.93221">
        <ele>575.5</ele>
        <time>2016-01-19T14:57:25Z</time>
      </trkpt>
      <trkpt lat="47.2818" lon="4.93229">
        <ele>575.5</ele>
        <time>2016-01-19T14:57:35Z</time>
      </trkpt>
      <trkpt lat="47.28187" lon="4.93239">
        <ele>575.4</ele>
        <time>2016-01-19T14:57:45Z</time>
      </trkpt>
      <trkpt lat="47.28188" lon="4.93253">
        <ele>575.1</ele>
        <time>2016-01-19T14:58:00Z</time>
      </trkpt>
      <trkpt lat="47.28194" lon="4.93263">
        <ele>574.5</ele>
        <time>2016-01-19T14:58:19Z</time>
      </trkpt>
      <trkpt lat="47.282" lon="4.93274">
        <ele>573.8</ele>
        <time>2016-01-19T14:58:29Z</time>
      </trkpt>
      <trkpt lat="47.28205" lon="4.93286">
        <ele>573.1</ele>
        <time>2016-01-19T14:58:39Z</time>
      </trkpt>
      <trkpt lat="47.28211" lon="4.93297">
        <ele>572.5</ele>
        <time>2016-01-19T14:58:49Z</time>
      </trkpt>
      <trkpt lat="47.28218" lon="4.93309">
        <ele>571.8</ele>
        <time>2016-01-19T14:58:59Z</time>
      </trkpt>
      <trkpt lat="47.28225" lon="4.93319">
        <ele>571.3</ele>
        <time>2016-01-19T14:59:09Z</time>
      </trkpt>
      <trkpt lat="47.28231" lon="4.9333">
        <ele>570.8</ele>
        <time>2016-01-19T14:59:16Z</time>
      </trkpt>
      <trkpt lat="47.28239" lon="4.93337">
        <ele>570.3</ele>
        <time>2016-01-19T14:59:25Z</time>
      </trkpt>
      <trkpt lat="47.28247" lon="4.93346">
        <ele>569.8</ele>
        <time>2016-01-19T14:59:35Z</time>
      </trkpt>
      <trkpt lat="47.28255" lon="4.93354">
        <ele>569</ele>
        <time>2016-01-19T14:59:43Z</time>
      </trkpt>
      <trkpt lat="47.28263" lon="4.93362">
        <ele>568.3</ele>
        <time>2016-01-19T14:59:51Z</time>
      </trkpt>
      <trkpt lat="47.28269" lon="4.93372">
        <ele>567.2</ele>
        <time>2016-01-19T15:00:00Z</time>
      </trkpt>
      <trkpt lat="47.28277" lon="4.93382">
        <ele>566</ele>
        <time>2016-01-19T15:00:06Z</time>
      </trkpt>
      <trkpt lat="47.28284" lon="4.93391">
        <ele>564.9</ele>
        <time>2016-01-19T15:00:14Z</time>
      </trkpt>
      <trkpt lat="47.2829" lon="4.93401">
        <ele>563.9</ele>
        <time>2016-01-19T15:00:29Z</time>
      </trkpt>
      <trkpt lat="47.28298" lon="4.93406">
        <ele>563</ele>
        <time>2016-01-19T15:00:43Z</time>
      </trkpt>
      <trkpt lat="47.28309" lon="4.93405">
        <ele>562.9</ele>
        <time>2016-01-19T15:00:58Z</time>
      </trkpt>
      <trkpt lat="47.28318" lon="4.93409">
        <ele>562.4</ele>
        <time>2016-01-19T15:01:09Z</time>
      </trkpt>
      <trkpt lat="47.28328" lon="4.93405">
        <ele>562.5</ele>
        <time>2016-01-19T15:01:16Z</time>
      </trkpt>
      <trkpt lat="47.28337" lon="4.93401">
        <ele>562.9</ele>
        <time>2016-01-19T15:01:22Z</time>
      </trkpt>
      <trkpt lat="47.28346" lon="4.934">
        <ele>563.1</ele>
        <time>2016-01-19T15:01:28Z</time>
      </trkpt>
      <trkpt lat="47.28356" lon="4.93397">
        <ele>563.5</ele>
        <time>2016-01-19T15:01:41Z</time>
      </trkpt>
      <trkpt lat="47.28365" lon="4.93395">
        <ele>563.8</ele>
        <time>2016-01-19T15:01:48Z</time>
      </trkpt>
      <trkpt lat="47.28375" lon="4.93394">
        <ele>564</ele>
        <time>2016-01-19T15:01:54Z</time>
      </trkpt>
      <trkpt lat="47.28385" lon="4.93394">
        <ele>563.9</ele>
        <time>2016-01-19T15:01:57Z</time>
      </trkpt>
      <trkpt lat="47.28394" lon="4.93395">
        <ele>564</ele>
        <time>2016-01-19T15:02:00Z</time>
      </trkpt>
      <trkpt lat="47.28403" lon="4.93394">
        <ele>564.2</ele>
        <time>2016-01-19T15:02:10Z</time>
      </trkpt>
      <trkpt lat="47.28413" lon="4.93393">
        <ele>564.2</ele>
        <time>2016-01-19T15:02:27Z</time>
      </trkpt>
      <trkpt lat="47.28422" lon="4.93389">
        <ele>564.9</ele>
        <time>2016-01-19T15:03:17Z</time>
      </trkpt>
      <trkpt lat="47.28431" lon="4.93384">
        <ele>565.8</ele>
        <time>2016-01-19T15:03:30Z</time>
      </trkpt>
      <trkpt lat="47.28439" lon="4.93379">
        <ele>566.6</ele>
        <time>2016-01-19T15:03:40Z</time>
      </trkpt>
      <trkpt lat="47.28448" lon="4.93377">
        <ele>567.2</ele>
        <time>2016-01-19T15:03:50Z</time>
      </trkpt>
      <trkpt lat="47.28457" lon="4.93375">
        <ele>567.7</ele>
        <time>2016-01-19T15:03:59Z</time>
      </trkpt>
      <trkpt lat="47.28466" lon="4.93378">
        <ele>567.9</ele>
        <time>2016-01-19T15:04:13Z</time>
      </trkpt>
      <trkpt lat="47.28475" lon="4.93382">
        <ele>568</ele>
        <time>2016-01-19T15:04:24Z</time>
      </trkpt>
      <trkpt lat="47.28484" lon="4.93381">
        <ele>568.4</ele>
        <time>2016-01-19T15:04:36Z</time>
      </trkpt>
      <trkpt lat="47.28492" lon="4.93373">
        <ele>569.3</ele>
        <time>2016-01-19T15:04:48Z</time>
      </trkpt>
      <trkpt lat="47.285" lon="4.93365">
        <ele>570.1</ele>
        <time>2016-01-19T15:04:56Z</time>
      </trkpt>
      <trkpt lat="47.28506" lon="4.93355">
        <ele>570.9</ele>
        <time>2016-01-19T15:05:05Z</time>
      </trkpt>
      <trkpt lat="47.28513" lon="4.93346">
        <ele>571.7</ele>
        <time>2016-01-19T15:05:27Z</time>
      </trkpt>
      <trkpt lat="47.28514" lon="4.93332">
        <ele>572.4</ele>
        <time>2016-01-19T15:05:45Z</time>
      </trkpt>
      <trkpt lat="47.28516" lon="4.93319">
        <ele>573.2</ele>
        <time>2016-01-19T15:05:58Z</time>
      </trkpt>
      <trkpt lat="47.28515" lon="4.93305">
        <ele>573.8</ele>
        <time>2016-01-19T15:06:08Z</time>
      </trkpt>
      <trkpt lat="47.28514" lon="4.93292">
        <ele>574.4</ele>
        <time>2016-01-19T15:06:19Z</time>
      </trkpt>
      <trkpt lat="47.28514" lon="4.93277">
        <ele>575.2</ele>
        <time>2016-01-19T15:06:29Z</time>
      </trkpt>
      <trkpt lat="47.28514" lon="4.93264">
        <ele>575.8</ele>
        <time>2016-01-19T15:06:37Z</time>
      </trkpt>
      <trkpt lat="47.28516" lon="4.9325">
        <ele>576.6</ele>
        <time>2016-01-19T15:06:49Z</time>
      </trkpt>
      <trkpt lat="47.28517" lon="4.93236">
        <ele>577.7</ele>
        <time>2016-01-19T15:06:59Z</time>
      </trkpt>
      <trkpt lat="47.28516" lon="4.93223">
        <ele>578.8</ele>
        <time>2016-01-19T15:07:09Z</time>
      </trkpt>
      <trkpt lat="47.28516" lon="4.93209">
        <ele>579.9</ele>
        <time>2016-01-19T15:07:15Z</time>
      </trkpt>
      <trkpt lat="47.28517" lon="4.93195">
        <ele>581</ele>
        <time>2016-01-19T15:07:20Z</time>
      </trkpt>
      <trkpt lat="47.28517" lon="4.93181">
        <ele>582.1</ele>
        <time>2016-01-19T15:07:26Z</time>
      </trkpt>
      <trkpt lat="47.28517" lon="4.93167">
        <ele>583.2</ele>
        <time>2016-01-19T15:07:35Z</time>
      </trkpt>
      <trkpt lat="47.28515" lon="4.93153">
        <ele>583.7</ele>
        <time>2016-01-19T15:07:50Z</time>
      </trkpt>
      <trkpt lat="47.28514" lon="4.93139">
        <ele>584.1</ele>
        <time>2016-01-19T15:08:00Z</time>
      </trkpt>
      <trkpt lat="47.28512" lon="4.93124">
        <ele>584.6</ele>
        <time>2016-01-19T15:08:09Z</time>
      </trkpt>
      <trkpt lat="47.28513" lon="4.9311">
        <ele>585.1</ele>
        <time>2016-01-19T15:08:18Z</time>
      </trkpt>
      <trkpt lat="47.28515" lon="4.93096">
        <ele>585.6</ele>
        <time>2016-01-19T15:08:28Z</time>
      </trkpt>
      <trkpt lat="47.28519" lon="4.93083">
        <ele>586</ele>
        <time>2016-01-19T15:08:38Z</time>
      </trkpt>
      <trkpt lat="47.28519" lon="4.9307">
        <ele>586.5</ele>
        <time>2016-01-19T15:08:48Z</time>
      </trkpt>
      <trkpt lat="47.28521" lon="4.93055">
        <ele>586.9</ele>
        <time>2016-01-19T15:08:58Z</time>
      </trkpt>
      <trkpt lat="47.2852" lon="4.93042">
        <ele>587.4</ele>
        <time>2016-01-19T15:09:07Z</time>
      </trkpt>
      <trkpt lat="47.28522" lon="4.93029">
        <ele>587.8</ele>
        <time>2016-01-19T15:09:16Z</time>
      </trkpt>
      <trkpt lat="47.28523" lon="4.93015">
        <ele>588.3</ele>
        <time>2016-01-19T15:09:25Z</time>
      </trkpt>
      <trkpt lat="47.28524" lon="4.93001">
        <ele>588.7</ele>
        <time>2016-01-19T15:09:34Z</time>
      </trkpt>
      <trkpt lat="47.28526" lon="4.92988">
        <ele>588.8</ele>
        <time>2016-01-19T15:09:43Z</time>
      </trkpt>
      <trkpt lat="47.28527" lon="4.92975">
        <ele>588.8</ele>
        <time>2016-01-19T15:09:52Z</time>
      </trkpt>
      <trkpt lat="47.28526" lon="4.9296">
        <ele>588.9</ele>
        <time>2016-01-19T15:10:00Z</time>
      </trkpt>
      <trkpt lat="47.28527" lon="4.92947">
        <ele>588.9</ele>
        <time>2016-01-19T15:10:09Z</time>
      </trkpt>
      <trkpt lat="47.28529" lon="4.92934">
        <ele>588.9</ele>
        <time>2016-01-19T15:10:18Z</time>
      </trkpt>
      <trkpt lat="47.28533" lon="4.92922">
        <ele>588.8</ele>
        <time>2016-01-19T15:10:28Z</time>
      </trkpt>
      <trkpt lat="47.28542" lon="4.92918">
        <ele>588.5</ele>
        <time>2016-01-19T15:10:51Z</time>
      </trkpt>
      <trkpt lat="47.28552" lon="4.92918">
        <ele>588.1</ele>
        <time>2016-01-19T15:11:05Z</time>
      </trkpt>
      <trkpt lat="47.28562" lon="4.92918">
        <ele>587.8</ele>
        <time>2016-01-19T15:11:20Z</time>
      </trkpt>
      <trkpt lat="47.28572" lon="4.92918">
        <ele>587.4</ele>
        <time>2016-01-19T15:11:24Z</time>
      </trkpt>
      <trkpt lat="47.28582" lon="4.92918">
        <ele>587.1</ele>
        <time>2016-01-19T15:11:32Z</time>
      </trkpt>
      <trkpt lat="47.28591" lon="4.92919">
        <ele>586.6</ele>
        <time>2016-01-19T15:11:42Z</time>
      </trkpt>
      <trkpt lat="47.28601" lon="4.92917">
        <ele>586</ele>
        <time>2016-01-19T15:11:52Z</time>
      </trkpt>
      <trkpt lat="47.28611" lon="4.92919">
        <ele>585.4</ele>
        <time>2016-01-19T15:12:04Z</time>
      </trkpt>
      <trkpt lat="47.2862" lon="4.92917">
        <ele>584.8</ele>
        <time>2016-01-19T15:12:14Z</time>
      </trkpt>
      <trkpt lat="47.28628" lon="4.92924">
        <ele>584.5</ele>
        <time>2016-01-19T15:12:26Z</time>
      </trkpt>
      <trkpt lat="47.28637" lon="4.92926">
        <ele>583.9</ele>
        <time>2016-01-19T15:12:35Z</time>
      </trkpt>
      <trkpt lat="47.28646" lon="4.92927">
        <ele>583.4</ele>
        <time>2016-01-19T15:12:46Z</time>
      </trkpt>
      <trkpt lat="47.28656" lon="4.92926">
        <ele>582.8</ele>
        <time>2016-01-19T15:12:54Z</time>
      </trkpt>
      <trkpt lat="47.28666" lon="4.92926">
        <ele>582.3</ele>
        <time>2016-01-19T15:13:03Z</time>
      </trkpt>
      <trkpt lat="47.28675" lon="4.92924">
        <ele>581.1</ele>
        <time>2016-01-19T15:13:09Z</time>
      </trkpt>
      <trkpt lat="47.28684" lon="4.92918">
        <ele>580</ele>
        <time>2016-01-19T15:13:16Z</time>
      </trkpt>
      <trkpt lat="47.28692" lon="4.92909">
        <ele>578.9</ele>
        <time>2016-01-19T15:13:26Z</time>
      </trkpt>
      <trkpt lat="47.287" lon="4.92901">
        <ele>577.9</ele>
        <time>2016-01-19T15:13:32Z</time>
      </trkpt>
      <trkpt lat="47.28707" lon="4.92892">
        <ele>577.1</ele>
        <time>2016-01-19T15:13:38Z</time>
      </trkpt>
      <trkpt lat="47.28713" lon="4.92882">
        <ele>576.2</ele>
        <time>2016-01-19T15:13:48Z</time>
      </trkpt>
      <trkpt lat="47.28719" lon="4.9287">
        <ele>575.3</ele>
        <time>2016-01-19T15:13:57Z</time>
      </trkpt>
      <trkpt lat="47.28724" lon="4.92858">
        <ele>574.6</ele>
        <time>2016-01-19T15:14:06Z</time>
      </trkpt>
      <trkpt lat="47.28728" lon="4.92845">
        <ele>574</ele>
        <time>2016-01-19T15:14:15Z</time>
      </trkpt>
      <trkpt lat="47.28734" lon="4.92833">
        <ele>573.2</ele>
        <time>2016-01-19T15:14:25Z</time>
      </trkpt>
      <trkpt lat="47.28742" lon="4.92826">
        <ele>572.3</ele>
        <time>2016-01-19T15:14:32Z</time>
      </trkpt>
      <trkpt lat="47.2875" lon="4.9282">
        <ele>571.5</ele>
        <time>2016-01-19T15:14:41Z</time>
      </trkpt>
      <trkpt lat="47.28754" lon="4.92808">
        <ele>571</ele>
        <time>2016-01-19T15:15:02Z</time>
      </trkpt>
      <trkpt lat="47.28759" lon="4.92797">
        <ele>570.8</ele>
        <time>2016-01-19T15:15:14Z</time>
      </trkpt>
      <trkpt lat="47.28765" lon="4.92786">
        <ele>570.4</ele>
        <time>2016-01-19T15:15:23Z</time>
      </trkpt>
      <trkpt lat="47.28772" lon="4.92775">
        <ele>570.1</ele>
        <time>2016-01-19T15:15:30Z</time>
      </trkpt>
      <trkpt lat="47.28778" lon="4.92766">
        <ele>569.9</ele>
        <time>2016-01-19T15:15:41Z</time>
      </trkpt>
      <trkpt lat="47.28785" lon="4.92756">
        <ele>570.1</ele>
        <time>2016-01-19T15:15:53Z</time>
      </trkpt>
      <trkpt lat="47.28795" lon="4.92752">
        <ele>569.5</ele>
        <time>2016-01-19T15:16:00Z</time>
      </trkpt>
      <trkpt lat="47.28804" lon="4.92747">
        <ele>569.2</ele>
        <time>2016-01-19T15:16:09Z</time>
      </trkpt>
      <trkpt lat="47.28813" lon="4.92745">
        <ele>568.5</ele>
        <time>2016-01-19T15:16:23Z</time>
      </trkpt>
      <trkpt lat="47.28823" lon="4.92741">
        <ele>568.1</ele>
        <time>2016-01-19T15:16:32Z</time>
      </trkpt>
      <trkpt lat="47.28832" lon="4.9274">
        <ele>567.4</ele>
        <time>2016-01-19T15:16:46Z</time>
      </trkpt>
      <trkpt lat="47.28841" lon="4.92738">
        <ele>567.9</ele>
        <time>2016-01-19T15:16:58Z</time>
      </trkpt>
      <trkpt lat="47.28851" lon="4.92737">
        <ele>568.4</ele>
        <time>2016-01-19T15:17:06Z</time>
      </trkpt>
      <trkpt lat="47.28862" lon="4.92737">
        <ele>569</ele>
        <time>2016-01-19T15:17:16Z</time>
      </trkpt>
      <trkpt lat="47.28872" lon="4.92736">
        <ele>569.5</ele>
        <time>2016-01-19T15:17:29Z</time>
      </trkpt>
      <trkpt lat="47.28882" lon="4.92737">
        <ele>569.8</ele>
        <time>2016-01-19T15:17:43Z</time>
      </trkpt>
      <trkpt lat="47.28891" lon="4.92736">
        <ele>570.4</ele>
        <time>2016-01-19T15:17:51Z</time>
      </trkpt>
      <trkpt lat="47.28901" lon="4.92736">
        <ele>570.8</ele>
        <time>2016-01-19T15:17:58Z</time>
      </trkpt>
      <trkpt lat="47.28912" lon="4.92736">
        <ele>571.3</ele>
        <time>2016-01-19T15:18:06Z</time>
      </trkpt>
      <trkpt lat="47.28921" lon="4.92739">
        <ele>571.8</ele>
        <time>2016-01-19T15:18:12Z</time>
      </trkpt>
      <trkpt lat="47.28931" lon="4.92742">
        <ele>572.5</ele>
        <time>2016-01-19T15:18:16Z</time>
      </trkpt>
      <trkpt lat="47.28941" lon="4.92746">
        <ele>573.1</ele>
        <time>2016-01-19T15:18:21Z</time>
      </trkpt>
      <trkpt lat="47.28951" lon="4.92747">
        <ele>573.9</ele>
        <time>2016-01-19T15:18:26Z</time>
      </trkpt>
      <trkpt lat="47.28959" lon="4.9275">
        <ele>574.6</ele>
        <time>2016-01-19T15:18:31Z</time>
      </trkpt>
      <trkpt lat="47.28969" lon="4.92752">
        <ele>575.4</ele>
        <time>2016-01-19T15:18:37Z</time>
      </trkpt>
      <trkpt lat="47.28979" lon="4.92755">
        <ele>576.1</ele>
        <time>2016-01-19T15:18:45Z</time>
      </trkpt>
      <trkpt lat="47.28987" lon="4.92762">
        <ele>576</ele>
        <time>2016-01-19T15:18:52Z</time>
      </trkpt>
      <trkpt lat="47.28997" lon="4.92765">
        <ele>576.8</ele>
        <time>2016-01-19T15:18:59Z</time>
      </trkpt>
      <trkpt lat="47.29007" lon="4.92771">
        <ele>577.1</ele>
        <time>2016-01-19T15:19:07Z</time>
      </trkpt>
      <trkpt lat="47.29015" lon="4.92778">
        <ele>577.3</ele>
        <time>2016-01-19T15:19:15Z</time>
      </trkpt>
      <trkpt lat="47.29024" lon="4.92783">
        <ele>577.7</ele>
        <time>2016-01-19T15:19:24Z</time>
      </trkpt>
      <trkpt lat="47.29031" lon="4.92792">
        <ele>577.6</ele>
        <time>2016-01-19T15:19:34Z</time>
      </trkpt>
      <trkpt lat="47.29041" lon="4.92797">
        <ele>578.3</ele>
        <time>2016-01-19T15:19:42Z</time>
      </trkpt>
      <trkpt lat="47.29049" lon="4.92804">
        <ele>578.8</ele>
        <time>2016-01-19T15:19:49Z</time>
      </trkpt>
      <trkpt lat="47.29058" lon="4.92809">
        <ele>579.5</ele>
        <time>2016-01-19T15:19:57Z</time>
      </trkpt>
      <trkpt lat="47.29066" lon="4.92817">
        <ele>579.9</ele>
        <time>2016-01-19T15:20:05Z</time>
      </trkpt>
      <trkpt lat="47.29075" lon="4.92823">
        <ele>580.6</ele>
        <time>2016-01-19T15:20:14Z</time>
      </trkpt>
      <trkpt lat="47.29082" lon="4.92831">
        <ele>581</ele>
        <time>2016-01-19T15:20:21Z</time>
      </trkpt>
      <trkpt lat="47.2909" lon="4.92837">
        <ele>581.3</ele>
        <time>2016-01-19T15:20:28Z</time>
      </trkpt>
      <trkpt lat="47.29098" lon="4.92846">
        <ele>581.5</ele>
        <time>2016-01-19T15:20:36Z</time>
      </trkpt>
      <trkpt lat="47.29105" lon="4.92854">
        <ele>581.5</ele>
        <time>2016-01-19T15:20:44Z</time>
      </trkpt>
      <trkpt lat="47.29113" lon="4.92861">
        <ele>581.8</ele>
        <time>2016-01-19T15:20:52Z</time>
      </trkpt>
      <trkpt lat="47.29121" lon="4.92869">
        <ele>582.1</ele>
        <time>2016-01-19T15:21:02Z</time>
      </trkpt>
      <trkpt lat="47.29128" lon="4.92879">
        <ele>582</ele>
        <time>2016-01-19T15:21:10Z</time>
      </trkpt>
      <trkpt lat="47.29134" lon="4.92889">
        <ele>582.1</ele>
        <time>2016-01-19T15:21:17Z</time>
      </trkpt>
      <trkpt lat="47.2914" lon="4.92899">
        <ele>582</ele>
        <time>2016-01-19T15:21:25Z</time>
      </trkpt>
      <trkpt lat="47.29147" lon="4.92908">
        <ele>582.3</ele>
        <time>2016-01-19T15:21:35Z</time>
      </trkpt>
      <trkpt lat="47.29152" lon="4.9292">
        <ele>582</ele>
        <time>2016-01-19T15:21:43Z</time>
      </trkpt>
      <trkpt lat="47.29157" lon="4.92931">
        <ele>581.8</ele>
        <time>2016-01-19T15:21:52Z</time>
      </trkpt>
      <trkpt lat="47.29162" lon="4.92943">
        <ele>581.6</ele>
        <time>2016-01-19T15:22:01Z</time>
      </trkpt>
      <trkpt lat="47.29169" lon="4.92953">
        <ele>581.5</ele>
        <time>2016-01-19T15:22:12Z</time>
      </trkpt>
      <trkpt lat="47.29175" lon="4.92964">
        <ele>581.1</ele>
        <time>2016-01-19T15:22:22Z</time>
      </trkpt>
      <trkpt lat="47.29181" lon="4.92975">
        <ele>580.7</ele>
        <time>2016-01-19T15:22:31Z</time>
      </trkpt>
      <trkpt lat="47.29186" lon="4.92986">
        <ele>580.2</ele>
        <time>2016-01-19T15:22:39Z</time>
      </trkpt>
      <trkpt lat="47.29192" lon="4.92996">
        <ele>579.8</ele>
        <time>2016-01-19T15:22:47Z</time>
      </trkpt>
      <trkpt lat="47.29197" lon="4.93007">
        <ele>579.4</ele>
        <time>2016-01-19T15:22:54Z</time>
      </trkpt>
      <trkpt lat="47.29201" lon="4.9302">
        <ele>578.6</ele>
        <time>2016-01-19T15:23:01Z</time>
      </trkpt>
      <trkpt lat="47.29206" lon="4.93032">
        <ele>578.1</ele>
        <time>2016-01-19T15:23:09Z</time>
      </trkpt>
      <trkpt lat="47.29211" lon="4.93044">
        <ele>577.6</ele>
        <time>2016-01-19T15:23:18Z</time>
      </trkpt>
      <trkpt lat="47.29218" lon="4.93055">
        <ele>577.3</ele>
        <time>2016-01-19T15:23:28Z</time>
      </trkpt>
      <trkpt lat="47.29225" lon="4.93066">
        <ele>577.1</ele>
        <time>2016-01-19T15:23:37Z</time>
      </trkpt>
      <trkpt lat="47.29232" lon="4.93076">
        <ele>577</ele>
        <time>2016-01-19T15:23:44Z</time>
      </trkpt>
      <trkpt lat="47.29238" lon="4.93086">
        <ele>576.8</ele>
        <time>2016-01-19T15:23:52Z</time>
      </trkpt>
      <trkpt lat="47.29244" lon="4.93096">
        <ele>576.4</ele>
        <time>2016-01-19T15:24:01Z</time>
      </trkpt>
      <trkpt lat="47.29249" lon="4.93109">
        <ele>576.1</ele>
        <time>2016-01-19T15:24:09Z</time>
      </trkpt>
      <trkpt lat="47.29253" lon="4.93122">
        <ele>575.3</ele>
        <time>2016-01-19T15:24:15Z</time>
      </trkpt>
      <trkpt lat="47.29256" lon="4.93135">
        <ele>574.4</ele>
        <time>2016-01-19T15:24:39Z</time>
      </trkpt>
      <trkpt lat="47.2926" lon="4.93147">
        <ele>573.5</ele>
        <time>2016-01-19T15:26:09Z</time>
      </trkpt>
      <trkpt lat="47.29268" lon="4.93156">
        <ele>572.9</ele>
        <time>2016-01-19T15:26:23Z</time>
      </trkpt>
      <trkpt lat="47.29274" lon="4.93167">
        <ele>572.3</ele>
        <time>2016-01-19T15:26:35Z</time>
      </trkpt>
      <trkpt lat="47.29281" lon="4.93176">
        <ele>571.3</ele>
        <time>2016-01-19T15:26:46Z</time>
      </trkpt>
      <trkpt lat="47.29288" lon="4.93186">
        <ele>570.3</ele>
        <time>2016-01-19T15:26:56Z</time>
      </trkpt>
      <trkpt lat="47.29295" lon="4.93194">
        <ele>569.5</ele>
        <time>2016-01-19T15:27:06Z</time>
      </trkpt>
      <trkpt lat="47.29302" lon="4.93203">
        <ele>568.6</ele>
        <time>2016-01-19T15:27:16Z</time>
      </trkpt>
      <trkpt lat="47.29308" lon="4.93213">
        <ele>567.8</ele>
        <time>2016-01-19T15:27:26Z</time>
      </trkpt>
      <trkpt lat="47.29316" lon="4.9322">
        <ele>567.3</ele>
        <time>2016-01-19T15:27:35Z</time>
      </trkpt>
      <trkpt lat="47.29323" lon="4.93231">
        <ele>566.5</ele>
        <time>2016-01-19T15:27:43Z</time>
      </trkpt>
      <trkpt lat="47.29329" lon="4.9324">
        <ele>565.8</ele>
        <time>2016-01-19T15:27:52Z</time>
      </trkpt>
      <trkpt lat="47.29337" lon="4.93247">
        <ele>565.4</ele>
        <time>2016-01-19T15:28:02Z</time>
      </trkpt>
      <trkpt lat="47.29346" lon="4.9325">
        <ele>565.3</ele>
        <time>2016-01-19T15:28:11Z</time>
      </trkpt>
      <trkpt lat="47.29354" lon="4.93257">
        <ele>564.4</ele>
        <time>2016-01-19T15:28:22Z</time>
      </trkpt>
      <trkpt lat="47.29361" lon="4.93265">
        <ele>563.4</ele>
        <time>2016-01-19T15:28:33Z</time>
      </trkpt>
      <trkpt lat="47.29369" lon="4.93272">
        <ele>562.6</ele>
        <time>2016-01-19T15:28:44Z</time>
      </trkpt>
      <trkpt lat="47.29377" lon="4.93279">
        <ele>561.9</ele>
        <time>2016-01-19T15:28:54Z</time>
      </trkpt>
      <trkpt lat="47.29385" lon="4.93287">
        <ele>561.2</ele>
        <time>2016-01-19T15:29:05Z</time>
      </trkpt>
      <trkpt lat="47.2939" lon="4.93297">
        <ele>560.1</ele>
        <time>2016-01-19T15:29:17Z</time>
      </trkpt>
      <trkpt lat="47.29398" lon="4.93304">
        <ele>559.6</ele>
        <time>2016-01-19T15:29:32Z</time>
      </trkpt>
      <trkpt lat="47.29407" lon="4.93309">
        <ele>559.3</ele>
        <time>2016-01-19T15:29:46Z</time>
      </trkpt>
      <trkpt lat="47.29415" lon="4.93317">
        <ele>558.7</ele>
        <time>2016-01-19T15:30:00Z</time>
      </trkpt>
      <trkpt lat="47.29423" lon="4.93323">
        <ele>558.4</ele>
        <time>2016-01-19T15:30:12Z</time>
      </trkpt>
      <trkpt lat="47.2943" lon="4.93335">
        <ele>557.4</ele>
        <time>2016-01-19T15:30:21Z</time>
      </trkpt>
      <trkpt lat="47.29439" lon="4.93339">
        <ele>557</ele>
        <time>2016-01-19T15:30:35Z</time>
      </trkpt>
      <trkpt lat="47.29446" lon="4.93348">
        <ele>555.5</ele>
        <time>2016-01-19T15:30:46Z</time>
      </trkpt>
      <trkpt lat="47.29452" lon="4.93359">
        <ele>553.5</ele>
        <time>2016-01-19T15:30:57Z</time>
      </trkpt>
      <trkpt lat="47.29459" lon="4.93368">
        <ele>552.5</ele>
        <time>2016-01-19T15:31:13Z</time>
      </trkpt>
      <trkpt lat="47.29465" lon="4.93379">
        <ele>551.1</ele>
        <time>2016-01-19T15:31:23Z</time>
      </trkpt>
      <trkpt lat="47.29473" lon="4.93385">
        <ele>550.4</ele>
        <time>2016-01-19T15:31:31Z</time>
      </trkpt>
      <trkpt lat="47.29482" lon="4.93392">
        <ele>550.1</ele>
        <time>2016-01-19T15:31:42Z</time>
      </trkpt>
      <trkpt lat="47.29489" lon="4.93402">
        <ele>549.3</ele>
        <time>2016-01-19T15:31:51Z</time>
      </trkpt>
      <trkpt lat="47.29495" lon="4.93414">
        <ele>547.8</ele>
        <time>2016-01-19T15:32:05Z</time>
      </trkpt>
      <trkpt lat="47.29501" lon="4.93426">
        <ele>546</ele>
        <time>2016-01-19T15:32:21Z</time>
      </trkpt>
      <trkpt lat="47.2951" lon="4.9343">
        <ele>545.4</ele>
        <time>2016-01-19T15:32:36Z</time>
      </trkpt>
      <trkpt lat="47.29514" lon="4.93442">
        <ele>543</ele>
        <time>2016-01-19T15:32:50Z</time>
      </trkpt>
      <trkpt lat="47.29515" lon="4.93457">
        <ele>539.8</ele>
        <time>2016-01-19T15:32:59Z</time>
      </trkpt>
      <trkpt lat="47.29516" lon="4.93471">
        <ele>536.6</ele>
        <time>2016-01-19T15:33:08Z</time>
      </trkpt>
      <trkpt lat="47.29519" lon="4.93484">
        <ele>533.6</ele>
        <time>2016-01-19T15:33:19Z</time>
      </trkpt>
      <trkpt lat="47.29523" lon="4.93497">
        <ele>531.2</ele>
        <time>2016-01-19T15:33:30Z</time>
      </trkpt>
      <trkpt lat="47.29528" lon="4.93509">
        <ele>528.6</ele>
        <time>2016-01-19T15:33:42Z</time>
      </trkpt>
      <trkpt lat="47.2953" lon="4.93523">
        <ele>525.7</ele>
        <time>2016-01-19T15:33:50Z</time>
      </trkpt>
      <trkpt lat="47.29532" lon="4.93536">
        <ele>522.8</ele>
        <time>2016-01-19T15:34:02Z</time>
      </trkpt>
      <trkpt lat="47.29536" lon="4.93548">
        <ele>520.1</ele>
        <time>2016-01-19T15:34:12Z</time>
      </trkpt>
      <trkpt lat="47.2954" lon="4.93561">
        <ele>517.7</ele>
        <time>2016-01-19T15:34:23Z</time>
      </trkpt>
      <trkpt lat="47.29543" lon="4.93574">
        <ele>514.7</ele>
        <time>2016-01-19T15:34:33Z</time>
      </trkpt>
      <trkpt lat="47.29546" lon="4.93588">
        <ele>512.1</ele>
        <time>2016-01-19T15:34:45Z</time>
      </trkpt>
      <trkpt lat="47.29549" lon="4.93601">
        <ele>510</ele>
        <time>2016-01-19T15:34:54Z</time>
      </trkpt>
      <trkpt lat="47.29552" lon="4.93614">
        <ele>507.8</ele>
        <time>2016-01-19T15:35:02Z</time>
      </trkpt>
      <trkpt lat="47.29555" lon="4.93627">
        <ele>505.6</ele>
        <time>2016-01-19T15:35:11Z</time>
      </trkpt>
      <trkpt lat="47.29559" lon="4.93639">
        <ele>503.3</ele>
        <time>2016-01-19T15:35:19Z</time>
      </trkpt>
      <trkpt lat="47.29564" lon="4.93651">
        <ele>501.3</ele>
        <time>2016-01-19T15:35:27Z</time>
      </trkpt>
      <trkpt lat="47.29568" lon="4.93663">
        <ele>499.2</ele>
        <time>2016-01-19T15:35:35Z</time>
      </trkpt>
      <trkpt lat="47.29574" lon="4.93674">
        <ele>497.2</ele>
        <time>2016-01-19T15:35:45Z</time>
      </trkpt>
      <trkpt lat="47.29581" lon="4.93683">
        <ele>495.7</ele>
        <time>2016-01-19T15:35:54Z</time>
      </trkpt>
      <trkpt lat="47.29589" lon="4.93692">
        <ele>494</ele>
        <time>2016-01-19T15:36:03Z</time>
      </trkpt>
      <trkpt lat="47.29593" lon="4.93704">
        <ele>491.5</ele>
        <time>2016-01-19T15:36:14Z</time>
      </trkpt>
      <trkpt lat="47.29585" lon="4.93709">
        <ele>490.9</ele>
        <time>2016-01-19T15:36:24Z</time>
      </trkpt>
      <trkpt lat="47.29576" lon="4.93711">
        <ele>490.6</ele>
        <time>2016-01-19T15:36:33Z</time>
      </trkpt>
      <trkpt lat="47.29566" lon="4.93712">
        <ele>490.1</ele>
        <time>2016-01-19T15:36:41Z</time>
      </trkpt>
      <trkpt lat="47.29556" lon="4.93713">
        <ele>489.4</ele>
        <time>2016-01-19T15:36:48Z</time>
      </trkpt>
      <trkpt lat="47.29547" lon="4.93714">
        <ele>489.2</ele>
        <time>2016-01-19T15:36:55Z</time>
      </trkpt>
      <trkpt lat="47.29537" lon="4.93716">
        <ele>488.7</ele>
        <time>2016-01-19T15:37:03Z</time>
      </trkpt>
      <trkpt lat="47.29527" lon="4.93716">
        <ele>488.5</ele>
        <time>2016-01-19T15:37:11Z</time>
      </trkpt>
      <trkpt lat="47.29518" lon="4.93715">
        <ele>488.3</ele>
        <time>2016-01-19T15:37:21Z</time>
      </trkpt>
      <trkpt lat="47.29508" lon="4.93716">
        <ele>487.9</ele>
        <time>2016-01-19T15:37:28Z</time>
      </trkpt>
      <trkpt lat="47.29499" lon="4.93717">
        <ele>487.6</ele>
        <time>2016-01-19T15:37:35Z</time>
      </trkpt>
      <trkpt lat="47.29489" lon="4.93717">
        <ele>487.2</ele>
        <time>2016-01-19T15:37:43Z</time>
      </trkpt>
      <trkpt lat="47.29481" lon="4.93723">
        <ele>485.9</ele>
        <time>2016-01-19T15:37:59Z</time>
      </trkpt>
      <trkpt lat="47.29476" lon="4.93735">
        <ele>484</ele>
        <time>2016-01-19T15:38:07Z</time>
      </trkpt>
      <trkpt lat="47.29472" lon="4.93748">
        <ele>482</ele>
        <time>2016-01-19T15:38:14Z</time>
      </trkpt>
      <trkpt lat="47.29469" lon="4.93761">
        <ele>480.6</ele>
        <time>2016-01-19T15:38:23Z</time>
      </trkpt>
      <trkpt lat="47.29466" lon="4.93774">
        <ele>479.2</ele>
        <time>2016-01-19T15:38:34Z</time>
      </trkpt>
      <trkpt lat="47.29457" lon="4.93779">
        <ele>478.6</ele>
        <time>2016-01-19T15:38:44Z</time>
      </trkpt>
      <trkpt lat="47.29449" lon="4.93786">
        <ele>477.8</ele>
        <time>2016-01-19T15:38:51Z</time>
      </trkpt>
      <trkpt lat="47.29441" lon="4.93794">
        <ele>477</ele>
        <time>2016-01-19T15:38:57Z</time>
      </trkpt>
      <trkpt lat="47.29433" lon="4.93802">
        <ele>476.1</ele>
        <time>2016-01-19T15:39:04Z</time>
      </trkpt>
      <trkpt lat="47.29426" lon="4.93812">
        <ele>475</ele>
        <time>2016-01-19T15:39:12Z</time>
      </trkpt>
      <trkpt lat="47.29418" lon="4.93819">
        <ele>474.5</ele>
        <time>2016-01-19T15:39:21Z</time>
      </trkpt>
      <trkpt lat="47.29418" lon="4.93821">
        <ele>474.3</ele>
        <time>2016-01-19T15:39:54Z</time>
      </trkpt>
    </trkseg>
  </trk>
</gpx>